Time,TemperatureF,DewpointF,PressureIn,WindDirection,WindDirectionDegrees,WindSpeedMPH,WindSpeedGustMPH,Humidity,HourlyPrecipIn,Conditions,Clouds,dailyrainin,SoftwareType,DateUTC
2013-10-30 10:33:00,47.3,39.8,0.00,SW,225,4.9,6.5,75,0.00,,---,0.00,VWS V14.01,2013-10-30 15:33:00,
2013-10-30 10:34:00,47.5,40.3,0.00,SW,225,3.4,6.5,76,0.00,,---,0.00,VWS V14.01,2013-10-30 15:34:00,
2013-10-30 10:35:00,47.5,40.3,0.00,SW,225,3.4,6.5,76,0.00,,---,0.00,VWS V14.01,2013-10-30 15:35:00,
2013-10-30 10:36:00,47.9,40.7,0.00,WSW,248,4.0,6.5,76,0.00,,---,0.00,VWS V14.01,2013-10-30 15:36:00,
2013-10-30 10:37:00,47.9,40.7,0.00,SW,225,5.8,6.5,76,0.00,,---,0.00,VWS V14.01,2013-10-30 15:37:00,
2013-10-30 10:38:00,48.0,40.8,0.00,SW,225,3.8,6.5,76,0.00,,---,0.00,VWS V14.01,2013-10-30 15:38:00,
2013-10-30 10:39:00,48.2,41.0,0.00,WSW,248,3.6,6.5,76,0.00,,---,0.00,VWS V14.01,2013-10-30 15:39:00,
2013-10-30 10:40:00,48.4,41.2,0.00,South,180,4.9,6.5,76,0.00,,---,0.00,VWS V14.01,2013-10-30 15:40:00,
2013-10-30 10:41:00,48.4,41.2,0.00,South,180,4.9,6.5,76,0.00,,---,0.00,VWS V14.01,2013-10-30 15:41:00,
2013-10-30 10:42:00,48.4,41.2,0.00,South,180,5.6,6.5,76,0.00,,---,0.00,VWS V14.01,2013-10-30 15:42:00,
2013-10-30 10:43:00,48.4,41.2,0.00,South,180,3.8,7.6,76,0.00,,---,0.00,VWS V14.01,2013-10-30 15:43:00,
2013-10-30 10:44:00,48.2,40.3,0.00,SW,225,4.3,7.6,74,0.00,,---,0.00,VWS V14.01,2013-10-30 15:44:00,
2013-10-30 10:45:00,48.6,40.7,0.00,South,180,4.0,7.6,74,0.00,,---,0.00,VWS V14.01,2013-10-30 15:45:00,
2013-10-30 10:46:00,48.4,40.2,0.00,SW,225,3.8,6.0,73,0.00,,---,0.00,VWS V14.01,2013-10-30 15:46:00,
2013-10-30 10:47:00,48.8,41.2,0.00,SW,225,3.8,6.0,75,0.00,,---,0.00,VWS V14.01,2013-10-30 15:47:00,
2013-10-30 10:48:00,48.8,41.2,0.00,SW,225,3.8,6.0,75,0.00,,---,0.00,VWS V14.01,2013-10-30 15:48:00,
2013-10-30 10:49:00,49.1,41.5,0.00,SW,225,3.1,6.0,75,0.00,,---,0.00,VWS V14.01,2013-10-30 15:49:00,
2013-10-30 10:50:00,49.1,41.5,0.00,SW,225,3.1,6.0,75,0.00,,---,0.00,VWS V14.01,2013-10-30 15:50:00,
2013-10-30 10:51:00,49.1,40.8,0.00,South,180,4.3,6.3,73,0.00,,---,0.00,VWS V14.01,2013-10-30 15:51:00,
2013-10-30 10:52:00,49.1,40.1,0.00,SW,225,3.8,6.3,71,0.00,,---,0.00,VWS V14.01,2013-10-30 15:52:00,
2013-10-30 10:53:00,49.1,40.1,0.00,SW,225,4.9,6.3,71,0.00,,---,0.00,VWS V14.01,2013-10-30 15:53:00,
2013-10-30 10:54:00,49.5,41.2,0.00,South,180,3.6,7.2,73,0.00,,---,0.00,VWS V14.01,2013-10-30 15:54:00,
2013-10-30 10:55:00,49.5,40.8,0.00,SW,225,6.3,7.2,72,0.00,,---,0.00,VWS V14.01,2013-10-30 15:55:00,
2013-10-30 10:56:00,49.7,41.0,0.00,NW,315,3.8,7.2,72,0.00,,---,0.00,VWS V14.01,2013-10-30 15:56:00,
2013-10-30 10:57:00,49.7,41.0,0.00,SSE,158,2.7,7.2,72,0.00,,---,0.00,VWS V14.01,2013-10-30 15:57:00,
2013-10-30 10:59:00,49.7,41.0,0.00,SW,225,4.3,7.2,72,0.00,,---,0.00,VWS V14.01,2013-10-30 15:59:00,
2013-10-30 11:00:00,49.8,40.8,0.00,SW,225,3.8,7.2,71,0.00,,---,0.00,VWS V14.01,2013-10-30 16:00:00,
2013-10-30 11:01:00,50.0,41.0,0.00,SW,225,2.5,3.8,71,0.00,,---,0.00,VWS V14.01,2013-10-30 16:01:00,
2013-10-30 11:02:00,50.2,40.8,0.00,WNW,292,3.6,5.4,70,0.00,,---,0.00,VWS V14.01,2013-10-30 16:02:00,
2013-10-30 11:03:00,50.2,40.4,0.00,SW,225,2.5,5.4,69,0.00,,---,0.00,VWS V14.01,2013-10-30 16:03:00,
2013-10-30 11:04:00,50.4,40.6,0.00,SW,225,3.8,5.4,69,0.00,,---,0.00,VWS V14.01,2013-10-30 16:04:00,
2013-10-30 11:05:00,50.4,40.6,0.00,SW,225,3.8,5.4,69,0.00,,---,0.00,VWS V14.01,2013-10-30 16:05:00,
2013-10-30 11:06:00,50.4,40.6,0.00,WSW,248,3.1,5.4,69,0.00,,---,0.00,VWS V14.01,2013-10-30 16:06:00,
2013-10-30 11:07:00,50.6,40.8,0.00,SSW,202,3.1,5.4,69,0.00,,---,0.00,VWS V14.01,2013-10-30 16:07:00,
2013-10-30 11:08:00,50.6,40.4,0.00,SW,225,3.1,5.4,68,0.00,,---,0.00,VWS V14.01,2013-10-30 16:08:00,
2013-10-30 11:09:00,50.6,40.4,0.00,SW,225,5.8,5.8,68,0.00,,---,0.00,VWS V14.01,2013-10-30 16:09:00,
2013-10-30 11:10:00,50.6,40.4,0.00,NW,315,3.1,5.8,68,0.00,,---,0.00,VWS V14.01,2013-10-30 16:10:00,
2013-10-30 11:12:00,50.6,40.0,0.00,West,270,1.1,5.8,67,0.00,,---,0.00,VWS V14.01,2013-10-30 16:12:00,
2013-10-30 11:13:00,50.7,40.6,0.00,West,270,4.0,6.0,68,0.00,,---,0.00,VWS V14.01,2013-10-30 16:13:00,
2013-10-30 11:14:00,50.7,40.6,0.00,SSW,202,3.4,6.0,68,0.00,,---,0.00,VWS V14.01,2013-10-30 16:14:00,
2013-10-30 11:15:00,50.7,39.4,0.00,WNW,292,5.4,6.0,65,0.00,,---,0.00,VWS V14.01,2013-10-30 16:15:00,
2013-10-30 11:16:00,50.7,39.0,0.00,SW,225,3.8,5.4,64,0.00,,---,0.00,VWS V14.01,2013-10-30 16:16:00,
2013-10-30 11:17:00,50.7,39.8,0.00,SW,225,1.3,5.4,66,0.00,,---,0.00,VWS V14.01,2013-10-30 16:17:00,
2013-10-30 11:19:00,50.9,40.0,0.00,West,270,3.8,6.0,66,0.00,,---,0.00,VWS V14.01,2013-10-30 16:19:00,
2013-10-30 11:20:00,50.9,40.0,0.00,SW,225,5.6,6.5,66,0.00,,---,0.00,VWS V14.01,2013-10-30 16:20:00,
2013-10-30 11:21:00,50.9,39.6,0.00,West,270,7.6,7.6,65,0.00,,---,0.00,VWS V14.01,2013-10-30 16:21:00,
2013-10-30 11:22:00,50.9,39.2,0.00,SW,225,4.0,7.6,64,0.00,,---,0.00,VWS V14.01,2013-10-30 16:22:00,
2013-10-30 11:23:00,50.9,39.2,0.00,WNW,292,3.8,7.6,64,0.00,,---,0.00,VWS V14.01,2013-10-30 16:23:00,
2013-10-30 11:24:00,50.9,38.8,0.00,West,270,6.5,7.6,63,0.00,,---,0.00,VWS V14.01,2013-10-30 16:24:00,
2013-10-30 11:25:00,50.9,38.8,0.00,West,270,3.1,7.6,63,0.00,,---,0.00,VWS V14.01,2013-10-30 16:25:00,
2013-10-30 11:26:00,50.9,38.8,0.00,West,270,4.0,7.6,63,0.00,,---,0.00,VWS V14.01,2013-10-30 16:26:00,
2013-10-30 11:27:00,50.9,38.8,0.00,West,270,3.8,7.6,63,0.00,,---,0.00,VWS V14.01,2013-10-30 16:27:00,
2013-10-30 11:28:00,51.3,39.1,0.00,West,270,6.5,7.6,63,0.00,,---,0.00,VWS V14.01,2013-10-30 16:28:00,
2013-10-30 11:29:00,51.1,38.1,0.00,West,270,4.3,7.6,61,0.00,,---,0.00,VWS V14.01,2013-10-30 16:29:00,
2013-10-30 11:30:00,51.1,38.1,0.00,NW,315,3.6,7.6,61,0.00,,---,0.00,VWS V14.01,2013-10-30 16:30:00,
2013-10-30 11:31:00,51.1,38.1,0.00,WNW,292,5.8,5.8,61,0.00,,---,0.00,VWS V14.01,2013-10-30 16:31:00,
2013-10-30 11:32:00,51.1,38.1,0.00,West,270,6.5,7.2,61,0.00,,---,0.00,VWS V14.01,2013-10-30 16:32:00,
2013-10-30 11:33:00,51.1,38.1,0.00,WNW,292,3.1,7.2,61,0.00,,---,0.00,VWS V14.01,2013-10-30 16:33:00,
2013-10-30 11:34:00,51.1,38.5,0.00,West,270,7.8,7.8,62,0.00,,---,0.00,VWS V14.01,2013-10-30 16:34:00,
2013-10-30 11:35:00,51.1,38.1,0.00,West,270,6.5,7.8,61,0.00,,---,0.00,VWS V14.01,2013-10-30 16:35:00,
2013-10-30 11:36:00,51.6,38.6,0.00,West,270,4.9,7.8,61,0.00,,---,0.00,VWS V14.01,2013-10-30 16:36:00,
2013-10-30 11:37:00,51.6,38.6,0.00,West,270,3.8,7.8,61,0.00,,---,0.00,VWS V14.01,2013-10-30 16:37:00,
2013-10-30 11:38:00,52.5,39.1,0.00,WNW,292,2.5,7.8,60,0.00,,---,0.00,VWS V14.01,2013-10-30 16:38:00,
2013-10-30 11:39:00,52.9,39.4,0.00,West,270,2.5,7.8,60,0.00,,---,0.00,VWS V14.01,2013-10-30 16:39:00,
2013-10-30 11:40:00,52.9,39.4,0.00,SW,225,2.9,7.8,60,0.00,,---,0.00,VWS V14.01,2013-10-30 16:40:00,
2013-10-30 11:41:00,53.6,39.2,0.00,NW,315,6.0,7.8,58,0.00,,---,0.00,VWS V14.01,2013-10-30 16:41:00,
2013-10-30 11:42:00,53.8,38.9,0.00,NW,315,3.8,7.8,57,0.00,,---,0.00,VWS V14.01,2013-10-30 16:42:00,
2013-10-30 11:43:00,54.0,39.5,0.00,West,270,5.4,7.8,58,0.00,,---,0.00,VWS V14.01,2013-10-30 16:43:00,
2013-10-30 11:44:00,53.8,38.9,0.00,WNW,292,8.1,8.1,57,0.00,,---,0.00,VWS V14.01,2013-10-30 16:44:00,
2013-10-30 11:45:00,53.8,38.5,0.00,WNW,292,6.0,8.1,56,0.00,,---,0.00,VWS V14.01,2013-10-30 16:45:00,
2013-10-30 11:46:00,53.8,39.4,0.00,WSW,248,3.1,6.0,58,0.00,,---,0.00,VWS V14.01,2013-10-30 16:46:00,
2013-10-30 11:47:00,53.8,38.5,0.00,West,270,5.6,6.0,56,0.00,,---,0.00,VWS V14.01,2013-10-30 16:47:00,
2013-10-30 11:48:00,53.8,38.5,0.00,WNW,292,3.4,6.0,56,0.00,,---,0.00,VWS V14.01,2013-10-30 16:48:00,
2013-10-30 11:49:00,54.0,38.7,0.00,West,270,4.0,6.0,56,0.00,,---,0.00,VWS V14.01,2013-10-30 16:49:00,
2013-10-30 11:50:00,54.0,38.7,0.00,NW,315,4.0,6.0,56,0.00,,---,0.00,VWS V14.01,2013-10-30 16:50:00,
2013-10-30 11:51:00,54.0,38.7,0.00,West,270,3.4,6.0,56,0.00,,---,0.00,VWS V14.01,2013-10-30 16:51:00,
2013-10-30 11:52:00,54.0,38.2,0.00,WNW,292,6.0,6.0,55,0.00,,---,0.00,VWS V14.01,2013-10-30 16:52:00,
2013-10-30 11:53:00,54.0,38.2,0.00,NW,315,6.5,6.5,55,0.00,,---,0.00,VWS V14.01,2013-10-30 16:53:00,
2013-10-30 11:54:00,53.8,38.0,0.00,NW,315,4.0,6.5,55,0.00,,---,0.00,VWS V14.01,2013-10-30 16:54:00,
2013-10-30 11:55:00,53.8,38.0,0.00,West,270,6.3,6.5,55,0.00,,---,0.00,VWS V14.01,2013-10-30 16:55:00,
2013-10-30 11:56:00,53.8,38.0,0.00,WNW,292,4.0,6.5,55,0.00,,---,0.00,VWS V14.01,2013-10-30 16:56:00,
2013-10-30 11:58:00,53.6,37.9,0.00,West,270,4.9,6.5,55,0.00,,---,0.00,VWS V14.01,2013-10-30 16:58:00,
2013-10-30 11:59:00,53.4,37.7,0.00,West,270,4.3,6.5,55,0.00,,---,0.00,VWS V14.01,2013-10-30 16:59:00,
2013-10-30 12:00:00,53.4,37.7,0.00,NW,315,4.9,7.8,55,0.00,,---,0.00,VWS V14.01,2013-10-30 17:00:00,
2013-10-30 12:01:00,53.1,37.4,0.00,NW,315,4.3,4.9,55,0.00,,---,0.00,VWS V14.01,2013-10-30 17:01:00,
2013-10-30 12:02:00,53.1,37.4,0.00,NW,315,4.0,4.9,55,0.00,,---,0.00,VWS V14.01,2013-10-30 17:02:00,
2013-10-30 12:03:00,53.3,38.0,0.00,West,270,3.1,4.9,56,0.00,,---,0.00,VWS V14.01,2013-10-30 17:03:00,
2013-10-30 12:04:00,53.3,38.0,0.00,West,270,3.1,4.9,56,0.00,,---,0.00,VWS V14.01,2013-10-30 17:04:00,
2013-10-30 12:05:00,53.4,38.2,0.00,SW,225,4.3,4.9,56,0.00,,---,0.00,VWS V14.01,2013-10-30 17:05:00,
2013-10-30 12:06:00,53.4,38.2,0.00,WNW,292,4.7,6.0,56,0.00,,---,0.00,VWS V14.01,2013-10-30 17:06:00,
2013-10-30 12:07:00,53.4,38.2,0.00,West,270,6.0,6.5,56,0.00,,---,0.00,VWS V14.01,2013-10-30 17:07:00,
2013-10-30 12:08:00,54.0,38.2,0.00,NW,315,6.3,6.5,55,0.00,,---,0.00,VWS V14.01,2013-10-30 17:08:00,
2013-10-30 12:09:00,54.2,38.4,0.00,WNW,292,4.9,6.5,55,0.00,,---,0.00,VWS V14.01,2013-10-30 17:09:00,
2013-10-30 12:10:00,54.2,38.4,0.00,WNW,292,4.3,6.5,55,0.00,,---,0.00,VWS V14.01,2013-10-30 17:10:00,
2013-10-30 12:11:00,54.9,39.0,0.00,NW,315,8.1,8.1,55,0.00,,---,0.00,VWS V14.01,2013-10-30 17:11:00,
2013-10-30 12:12:00,55.1,38.7,0.00,West,270,2.0,8.5,54,0.00,,---,0.00,VWS V14.01,2013-10-30 17:12:00,
2013-10-30 12:13:00,55.4,39.1,0.00,West,270,3.8,8.5,54,0.00,,---,0.00,VWS V14.01,2013-10-30 17:13:00,
2013-10-30 12:15:00,55.8,38.9,0.00,West,270,4.3,8.5,53,0.00,,---,0.00,VWS V14.01,2013-10-30 17:15:00,
2013-10-30 12:16:00,56.1,39.3,0.00,WNW,292,5.6,8.1,53,0.00,,---,0.00,VWS V14.01,2013-10-30 17:16:00,
2013-10-30 12:17:00,56.5,39.1,0.00,West,270,4.7,8.1,52,0.00,,---,0.00,VWS V14.01,2013-10-30 17:17:00,
2013-10-30 12:18:00,56.7,39.8,0.00,West,270,3.4,8.1,53,0.00,,---,0.00,VWS V14.01,2013-10-30 17:18:00,
2013-10-30 12:19:00,56.9,39.4,0.00,WNW,292,2.9,8.1,52,0.00,,---,0.00,VWS V14.01,2013-10-30 17:19:00,
2013-10-30 12:20:00,57.0,40.1,0.00,NW,315,2.9,8.1,53,0.00,,---,0.00,VWS V14.01,2013-10-30 17:20:00,
2013-10-30 12:21:00,57.4,39.9,0.00,WNW,292,3.1,8.1,52,0.00,,---,0.00,VWS V14.01,2013-10-30 17:21:00,
2013-10-30 12:22:00,57.6,39.6,0.00,West,270,3.1,8.1,51,0.00,,---,0.00,VWS V14.01,2013-10-30 17:22:00,
2013-10-30 12:23:00,57.6,39.6,0.00,West,270,3.1,8.1,51,0.00,,---,0.00,VWS V14.01,2013-10-30 17:23:00,
2013-10-30 12:24:00,58.1,40.1,0.00,West,270,2.9,8.1,51,0.00,,---,0.00,VWS V14.01,2013-10-30 17:24:00,
2013-10-30 12:25:00,58.1,40.1,0.00,NW,315,5.6,8.1,51,0.00,,---,0.00,VWS V14.01,2013-10-30 17:25:00,
2013-10-30 12:26:00,58.3,40.3,0.00,WNW,292,2.5,8.1,51,0.00,,---,0.00,VWS V14.01,2013-10-30 17:26:00,
2013-10-30 12:27:00,58.3,40.3,0.00,NW,315,3.8,8.1,51,0.00,,---,0.00,VWS V14.01,2013-10-30 17:27:00,
2013-10-30 12:28:00,58.3,39.8,0.00,North,0,2.2,8.1,50,0.00,,---,0.00,VWS V14.01,2013-10-30 17:28:00,
2013-10-30 12:29:00,58.5,40.4,0.00,ESE,112,2.7,8.1,51,0.00,,---,0.00,VWS V14.01,2013-10-30 17:29:00,
2013-10-30 12:30:00,58.8,40.8,0.00,WNW,292,3.1,8.1,51,0.00,,---,0.00,VWS V14.01,2013-10-30 17:30:00,
2013-10-30 12:31:00,59.4,41.3,0.00,West,270,0.9,4.0,51,0.00,,---,0.00,VWS V14.01,2013-10-30 17:31:00,
2013-10-30 12:32:00,59.6,40.9,0.00,West,270,3.8,6.3,50,0.00,,---,0.00,VWS V14.01,2013-10-30 17:32:00,
2013-10-30 12:33:00,59.4,40.2,0.00,WNW,292,4.5,8.1,49,0.00,,---,0.00,VWS V14.01,2013-10-30 17:33:00,
2013-10-30 12:34:00,59.0,39.9,0.00,West,270,7.8,8.5,49,0.00,,---,0.00,VWS V14.01,2013-10-30 17:34:00,
2013-10-30 12:35:00,58.7,39.6,0.00,NW,315,5.4,8.5,49,0.00,,---,0.00,VWS V14.01,2013-10-30 17:35:00,
2013-10-30 12:36:00,58.7,39.6,0.00,West,270,6.3,8.5,49,0.00,,---,0.00,VWS V14.01,2013-10-30 17:36:00,
2013-10-30 12:37:00,58.5,39.4,0.00,NW,315,3.6,8.5,49,0.00,,---,0.00,VWS V14.01,2013-10-30 17:37:00,
2013-10-30 12:38:00,58.5,39.4,0.00,West,270,3.8,8.5,49,0.00,,---,0.00,VWS V14.01,2013-10-30 17:38:00,
2013-10-30 12:39:00,58.7,39.6,0.00,West,270,2.7,8.5,49,0.00,,---,0.00,VWS V14.01,2013-10-30 17:39:00,
2013-10-30 12:40:00,58.7,39.6,0.00,West,270,3.6,8.5,49,0.00,,---,0.00,VWS V14.01,2013-10-30 17:40:00,
2013-10-30 12:41:00,58.7,39.6,0.00,West,270,4.9,8.5,49,0.00,,---,0.00,VWS V14.01,2013-10-30 17:41:00,
2013-10-30 12:42:00,58.7,39.6,0.00,WNW,292,3.8,8.5,49,0.00,,---,0.00,VWS V14.01,2013-10-30 17:42:00,
2013-10-30 12:43:00,58.8,39.7,0.00,West,270,4.9,8.5,49,0.00,,---,0.00,VWS V14.01,2013-10-30 17:43:00,
2013-10-30 12:44:00,58.8,39.7,0.00,WNW,292,3.4,8.5,49,0.00,,---,0.00,VWS V14.01,2013-10-30 17:44:00,
2013-10-30 12:45:00,59.0,39.9,0.00,West,270,2.9,2.9,49,0.00,,---,0.00,VWS V14.01,2013-10-30 17:45:00,
2013-10-30 12:46:00,59.2,40.1,0.00,West,270,0.0,5.6,49,0.00,,---,0.00,VWS V14.01,2013-10-30 17:46:00,
2013-10-30 12:47:00,59.4,39.7,0.00,WSW,248,3.8,5.6,48,0.00,,---,0.00,VWS V14.01,2013-10-30 17:47:00,
2013-10-30 12:48:00,59.4,39.7,0.00,West,270,3.8,5.6,48,0.00,,---,0.00,VWS V14.01,2013-10-30 17:48:00,
2013-10-30 12:49:00,59.6,39.9,0.00,West,270,4.0,5.6,48,0.00,,---,0.00,VWS V14.01,2013-10-30 17:49:00,
2013-10-30 12:50:00,59.6,39.9,0.00,SW,225,3.6,5.6,48,0.00,,---,0.00,VWS V14.01,2013-10-30 17:50:00,
2013-10-30 12:51:00,59.6,39.9,0.00,West,270,2.2,5.6,48,0.00,,---,0.00,VWS V14.01,2013-10-30 17:51:00,
2013-10-30 12:52:00,59.6,39.9,0.00,NW,315,3.8,5.6,48,0.00,,---,0.00,VWS V14.01,2013-10-30 17:52:00,
2013-10-30 12:53:00,59.7,40.0,0.00,NW,315,4.3,5.6,48,0.00,,---,0.00,VWS V14.01,2013-10-30 17:53:00,
2013-10-30 12:54:00,59.7,40.0,0.00,West,270,3.8,6.3,48,0.00,,---,0.00,VWS V14.01,2013-10-30 17:54:00,
2013-10-30 12:55:00,59.9,39.7,0.00,WNW,292,5.6,6.3,47,0.00,,---,0.00,VWS V14.01,2013-10-30 17:55:00,
2013-10-30 12:56:00,59.7,39.5,0.00,West,270,6.5,6.5,47,0.00,,---,0.00,VWS V14.01,2013-10-30 17:56:00,
2013-10-30 12:57:00,59.6,39.3,0.00,West,270,5.6,6.5,47,0.00,,---,0.00,VWS V14.01,2013-10-30 17:57:00,
2013-10-30 12:58:00,59.6,39.3,0.00,WNW,292,6.3,6.5,47,0.00,,---,0.00,VWS V14.01,2013-10-30 17:58:00,
2013-10-30 12:59:00,59.6,39.3,0.00,WSW,248,3.6,6.5,47,0.00,,---,0.00,VWS V14.01,2013-10-30 17:59:00,
2013-10-30 13:00:00,59.2,39.5,0.00,SW,225,2.7,6.5,48,0.00,,---,0.00,VWS V14.01,2013-10-30 18:00:00,
2013-10-30 13:01:00,59.6,39.9,0.00,West,270,3.4,3.4,48,0.00,,---,0.00,VWS V14.01,2013-10-30 18:01:00,
2013-10-30 13:02:00,59.9,40.2,0.00,West,270,2.7,3.4,48,0.00,,---,0.00,VWS V14.01,2013-10-30 18:02:00,
2013-10-30 13:03:00,60.1,40.4,0.00,NW,315,2.0,3.4,48,0.00,,---,0.00,VWS V14.01,2013-10-30 18:03:00,
2013-10-30 13:04:00,60.5,40.7,0.00,NW,315,4.0,4.3,48,0.00,,---,0.00,VWS V14.01,2013-10-30 18:04:00,
2013-10-30 13:05:00,60.6,40.9,0.00,West,270,4.3,4.3,48,0.00,,---,0.00,VWS V14.01,2013-10-30 18:05:00,
2013-10-30 13:06:00,60.6,40.9,0.00,NNW,338,3.8,5.8,48,0.00,,---,0.00,VWS V14.01,2013-10-30 18:06:00,
2013-10-30 13:07:00,60.6,40.9,0.00,NW,315,3.1,5.8,48,0.00,,---,0.00,VWS V14.01,2013-10-30 18:07:00,
2013-10-30 13:08:00,60.8,40.5,0.00,WNW,292,2.9,5.8,47,0.00,,---,0.00,VWS V14.01,2013-10-30 18:08:00,
2013-10-30 13:09:00,60.8,40.5,0.00,SW,225,6.3,8.1,47,0.00,,---,0.00,VWS V14.01,2013-10-30 18:09:00,
2013-10-30 13:10:00,60.8,40.5,0.00,NW,315,3.4,8.1,47,0.00,,---,0.00,VWS V14.01,2013-10-30 18:10:00,
2013-10-30 13:11:00,60.8,41.0,0.00,SW,225,1.1,8.1,48,0.00,,---,0.00,VWS V14.01,2013-10-30 18:11:00,
2013-10-30 13:12:00,50.6,40.0,0.00,West,270,1.1,5.8,67,0.00,,---,0.00,VWS V14.01,2013-10-30 18:12:00,
2013-10-30 13:13:00,61.2,40.8,0.00,South,180,2.9,8.1,47,0.00,,---,0.00,VWS V14.01,2013-10-30 18:13:00,
2013-10-30 13:14:00,61.4,41.0,0.00,SE,135,2.2,8.1,47,0.00,,---,0.00,VWS V14.01,2013-10-30 18:14:00,
2013-10-30 13:16:00,61.9,41.5,0.00,WNW,292,2.2,8.1,47,0.00,,---,0.00,VWS V14.01,2013-10-30 18:16:00,
2013-10-30 13:17:00,62.1,41.6,0.00,WNW,292,2.5,8.1,47,0.00,,---,0.00,VWS V14.01,2013-10-30 18:17:00,
2013-10-30 13:18:00,62.1,41.1,0.00,NW,315,2.7,8.1,46,0.00,,---,0.00,VWS V14.01,2013-10-30 18:18:00,
2013-10-30 13:19:00,62.3,41.2,0.00,West,270,5.4,8.1,46,0.00,,---,0.00,VWS V14.01,2013-10-30 18:19:00,
2013-10-30 13:20:00,62.1,41.1,0.00,NW,315,6.3,8.1,46,0.00,,---,0.00,VWS V14.01,2013-10-30 18:20:00,
2013-10-30 13:21:00,62.1,40.5,0.00,NW,315,4.9,8.1,45,0.00,,---,0.00,VWS V14.01,2013-10-30 18:21:00,
2013-10-30 13:22:00,62.1,40.5,0.00,West,270,5.6,8.1,45,0.00,,---,0.00,VWS V14.01,2013-10-30 18:22:00,
2013-10-30 13:23:00,61.4,39.9,0.00,NW,315,7.4,9.6,45,0.00,,---,0.00,VWS V14.01,2013-10-30 18:23:00,
2013-10-30 13:24:00,61.2,39.7,0.00,NNW,338,7.8,9.6,45,0.00,,---,0.00,VWS V14.01,2013-10-30 18:24:00,
2013-10-30 13:25:00,61.0,39.5,0.00,WSW,248,6.0,10.1,45,0.00,,---,0.00,VWS V14.01,2013-10-30 18:25:00,
2013-10-30 13:26:00,61.0,39.5,0.00,NW,315,7.6,10.1,45,0.00,,---,0.00,VWS V14.01,2013-10-30 18:26:00,
2013-10-30 13:27:00,60.8,39.9,0.00,NW,315,6.0,10.1,46,0.00,,---,0.00,VWS V14.01,2013-10-30 18:27:00,
2013-10-30 13:28:00,61.0,39.5,0.00,NW,315,6.0,10.1,45,0.00,,---,0.00,VWS V14.01,2013-10-30 18:28:00,
2013-10-30 13:29:00,61.0,40.1,0.00,NW,315,4.9,10.1,46,0.00,,---,0.00,VWS V14.01,2013-10-30 18:29:00,
2013-10-30 13:30:00,61.0,40.1,0.00,NW,315,4.9,10.1,46,0.00,,---,0.00,VWS V14.01,2013-10-30 18:30:00,
2013-10-30 13:31:00,61.0,40.1,0.00,NW,315,5.8,5.8,46,0.00,,---,0.00,VWS V14.01,2013-10-30 18:31:00,
2013-10-30 13:32:00,61.2,40.3,0.00,NW,315,5.8,5.8,46,0.00,,---,0.00,VWS V14.01,2013-10-30 18:32:00,
2013-10-30 13:33:00,61.2,39.7,0.00,NW,315,4.3,10.1,45,0.00,,---,0.00,VWS V14.01,2013-10-30 18:33:00,
2013-10-30 13:34:00,61.2,39.7,0.00,NW,315,5.4,10.1,45,0.00,,---,0.00,VWS V14.01,2013-10-30 18:34:00,
2013-10-30 13:35:00,61.2,39.7,0.00,WSW,248,2.5,10.1,45,0.00,,---,0.00,VWS V14.01,2013-10-30 18:35:00,
2013-10-30 13:36:00,61.2,39.7,0.00,West,270,4.9,10.1,45,0.00,,---,0.00,VWS V14.01,2013-10-30 18:36:00,
2013-10-30 13:37:00,61.2,39.7,0.00,WNW,292,5.8,10.1,45,0.00,,---,0.00,VWS V14.01,2013-10-30 18:37:00,
2013-10-30 13:38:00,61.2,39.7,0.00,NW,315,4.5,10.1,45,0.00,,---,0.00,VWS V14.01,2013-10-30 18:38:00,
2013-10-30 13:40:00,61.2,39.7,0.00,NW,315,4.9,10.1,45,0.00,,---,0.00,VWS V14.01,2013-10-30 18:40:00,
2013-10-30 13:41:00,61.5,40.0,0.00,WNW,292,3.8,10.1,45,0.00,,---,0.00,VWS V14.01,2013-10-30 18:41:00,
2013-10-30 13:42:00,61.7,40.2,0.00,NW,315,5.8,10.1,45,0.00,,---,0.00,VWS V14.01,2013-10-30 18:42:00,
2013-10-30 13:43:00,61.5,40.0,0.00,NW,315,7.2,10.1,45,0.00,,---,0.00,VWS V14.01,2013-10-30 18:43:00,
2013-10-30 13:44:00,61.5,40.0,0.00,NW,315,4.7,10.1,45,0.00,,---,0.00,VWS V14.01,2013-10-30 18:44:00,
2013-10-30 13:45:00,61.5,40.0,0.00,NNW,338,4.9,10.1,45,0.00,,---,0.00,VWS V14.01,2013-10-30 18:45:00,
2013-10-30 13:46:00,61.5,40.0,0.00,NW,315,6.0,6.0,45,0.00,,---,0.00,VWS V14.01,2013-10-30 18:46:00,
2013-10-30 13:47:00,61.5,40.0,0.00,NW,315,6.0,6.0,45,0.00,,---,0.00,VWS V14.01,2013-10-30 18:47:00,
2013-10-30 13:48:00,61.4,39.9,0.00,North,0,5.4,6.0,45,0.00,,---,0.00,VWS V14.01,2013-10-30 18:48:00,
2013-10-30 13:49:00,61.4,39.9,0.00,NW,315,7.4,8.1,45,0.00,,---,0.00,VWS V14.01,2013-10-30 18:49:00,
2013-10-30 13:50:00,61.4,39.9,0.00,North,0,4.9,8.1,45,0.00,,---,0.00,VWS V14.01,2013-10-30 18:50:00,
2013-10-30 13:51:00,61.4,39.9,0.00,NW,315,8.7,8.7,45,0.00,,---,0.00,VWS V14.01,2013-10-30 18:51:00,
2013-10-30 13:52:00,61.2,39.7,0.00,WNW,292,5.6,8.7,45,0.00,,---,0.00,VWS V14.01,2013-10-30 18:52:00,
2013-10-30 13:53:00,61.2,39.7,0.00,NW,315,6.5,8.7,45,0.00,,---,0.00,VWS V14.01,2013-10-30 18:53:00,
2013-10-30 13:55:00,61.2,39.7,0.00,WNW,292,3.8,8.7,45,0.00,,---,0.00,VWS V14.01,2013-10-30 18:55:00,
2013-10-30 13:56:00,61.4,39.9,0.00,NW,315,6.5,8.7,45,0.00,,---,0.00,VWS V14.01,2013-10-30 18:56:00,
2013-10-30 13:57:00,61.4,39.9,0.00,NW,315,6.3,8.7,45,0.00,,---,0.00,VWS V14.01,2013-10-30 18:57:00,
2013-10-30 13:58:00,61.5,40.0,0.00,NW,315,3.4,8.7,45,0.00,,---,0.00,VWS V14.01,2013-10-30 18:58:00,
2013-10-30 13:59:00,61.5,40.0,0.00,NNW,338,6.7,8.7,45,0.00,,---,0.00,VWS V14.01,2013-10-30 18:59:00,
2013-10-30 14:00:00,61.5,40.0,0.00,NW,315,7.8,8.7,45,0.00,,---,0.00,VWS V14.01,2013-10-30 19:00:00,
2013-10-30 14:01:00,61.5,40.0,0.00,NW,315,5.8,7.8,45,0.00,,---,0.00,VWS V14.01,2013-10-30 19:01:00,
2013-10-30 14:02:00,61.4,39.3,0.00,NW,315,7.8,9.6,44,0.00,,---,0.00,VWS V14.01,2013-10-30 19:02:00,
2013-10-30 14:03:00,61.4,39.9,0.00,West,270,3.6,9.6,45,0.00,,---,0.00,VWS V14.01,2013-10-30 19:03:00,
2013-10-30 14:04:00,61.4,39.9,0.00,West,270,5.4,9.6,45,0.00,,---,0.00,VWS V14.01,2013-10-30 19:04:00,
2013-10-30 14:05:00,61.5,40.0,0.00,WNW,292,5.6,9.6,45,0.00,,---,0.00,VWS V14.01,2013-10-30 19:05:00,
2013-10-30 14:06:00,61.5,40.0,0.00,NW,315,10.1,10.1,45,0.00,,---,0.00,VWS V14.01,2013-10-30 19:06:00,
2013-10-30 14:07:00,61.5,39.4,0.00,NW,315,4.7,10.1,44,0.00,,---,0.00,VWS V14.01,2013-10-30 19:07:00,
2013-10-30 14:08:00,61.5,39.4,0.00,WNW,292,6.3,10.1,44,0.00,,---,0.00,VWS V14.01,2013-10-30 19:08:00,
2013-10-30 14:09:00,61.9,40.3,0.00,North,0,5.4,10.1,45,0.00,,---,0.00,VWS V14.01,2013-10-30 19:09:00,
2013-10-30 14:11:00,61.9,40.3,0.00,NNW,338,4.0,10.1,45,0.00,,---,0.00,VWS V14.01,2013-10-30 19:11:00,
2013-10-30 14:12:00,61.9,39.8,0.00,NW,315,3.8,10.1,44,0.00,,---,0.00,VWS V14.01,2013-10-30 19:12:00,
2013-10-30 14:13:00,61.9,39.8,0.00,NW,315,10.5,10.5,44,0.00,,---,0.00,VWS V14.01,2013-10-30 19:13:00,
2013-10-30 14:14:00,61.7,40.2,0.00,NW,315,8.1,11.0,45,0.00,,---,0.00,VWS V14.01,2013-10-30 19:14:00,
2013-10-30 14:15:00,61.7,39.6,0.00,NW,315,6.5,11.0,44,0.00,,---,0.00,VWS V14.01,2013-10-30 19:15:00,
2013-10-30 14:16:00,61.7,39.6,0.00,NW,315,8.1,8.1,44,0.00,,---,0.00,VWS V14.01,2013-10-30 19:16:00,
2013-10-30 14:18:00,61.7,39.6,0.00,NW,315,6.3,8.1,44,0.00,,---,0.00,VWS V14.01,2013-10-30 19:18:00,
2013-10-30 14:19:00,61.7,39.6,0.00,West,270,6.3,8.1,44,0.00,,---,0.00,VWS V14.01,2013-10-30 19:19:00,
2013-10-30 14:20:00,61.7,39.6,0.00,West,270,2.9,8.1,44,0.00,,---,0.00,VWS V14.01,2013-10-30 19:20:00,
2013-10-30 14:21:00,61.7,39.6,0.00,West,270,3.1,8.1,44,0.00,,---,0.00,VWS V14.01,2013-10-30 19:21:00,
2013-10-30 14:22:00,61.7,39.6,0.00,NW,315,5.8,8.1,44,0.00,,---,0.00,VWS V14.01,2013-10-30 19:22:00,
2013-10-30 14:23:00,61.9,39.8,0.00,NW,315,6.5,8.1,44,0.00,,---,0.00,VWS V14.01,2013-10-30 19:23:00,
2013-10-30 14:24:00,61.9,39.8,0.00,NNW,338,4.9,8.1,44,0.00,,---,0.00,VWS V14.01,2013-10-30 19:24:00,
2013-10-30 14:25:00,61.9,39.8,0.00,NW,315,4.9,8.1,44,0.00,,---,0.00,VWS V14.01,2013-10-30 19:25:00,
2013-10-30 14:26:00,61.9,39.8,0.00,NW,315,8.1,10.1,44,0.00,,---,0.00,VWS V14.01,2013-10-30 19:26:00,
2013-10-30 14:27:00,61.9,39.8,0.00,NW,315,8.1,10.1,44,0.00,,---,0.00,VWS V14.01,2013-10-30 19:27:00,
2013-10-30 14:28:00,61.9,39.8,0.00,NW,315,6.3,10.1,44,0.00,,---,0.00,VWS V14.01,2013-10-30 19:28:00,
2013-10-30 14:29:00,62.1,39.9,0.00,NW,315,5.8,10.1,44,0.00,,---,0.00,VWS V14.01,2013-10-30 19:29:00,
2013-10-30 14:30:00,62.1,39.9,0.00,WNW,292,6.0,10.1,44,0.00,,---,0.00,VWS V14.01,2013-10-30 19:30:00,
2013-10-30 14:31:00,62.1,39.9,0.00,WNW,292,6.3,6.3,44,0.00,,---,0.00,VWS V14.01,2013-10-30 19:31:00,
2013-10-30 14:32:00,61.9,39.2,0.00,NW,315,6.7,6.7,43,0.00,,---,0.00,VWS V14.01,2013-10-30 19:32:00,
2013-10-30 14:33:00,61.9,39.8,0.00,NW,315,4.7,7.8,44,0.00,,---,0.00,VWS V14.01,2013-10-30 19:33:00,
2013-10-30 14:34:00,62.1,39.9,0.00,NW,315,6.3,7.8,44,0.00,,---,0.00,VWS V14.01,2013-10-30 19:34:00,
2013-10-30 14:35:00,62.3,40.1,0.00,NW,315,7.4,7.8,44,0.00,,---,0.00,VWS V14.01,2013-10-30 19:35:00,
2013-10-30 14:37:00,62.3,40.1,0.00,NW,315,7.6,8.7,44,0.00,,---,0.00,VWS V14.01,2013-10-30 19:37:00,
2013-10-30 14:38:00,62.3,40.1,0.00,NW,315,4.7,8.7,44,0.00,,---,0.00,VWS V14.01,2013-10-30 19:38:00,
2013-10-30 14:39:00,62.4,40.3,0.00,WNW,292,5.8,8.7,44,0.00,,---,0.00,VWS V14.01,2013-10-30 19:39:00,
2013-10-30 14:40:00,62.4,39.7,0.00,NW,315,4.3,8.7,43,0.00,,---,0.00,VWS V14.01,2013-10-30 19:40:00,
2013-10-30 14:42:00,62.4,40.3,0.00,NW,315,3.1,8.7,44,0.00,,---,0.00,VWS V14.01,2013-10-30 19:42:00,
2013-10-30 14:43:00,62.6,40.4,0.00,North,0,4.3,8.7,44,0.00,,---,0.00,VWS V14.01,2013-10-30 19:43:00,
2013-10-30 14:44:00,62.6,40.4,0.00,North,0,5.8,8.7,44,0.00,,---,0.00,VWS V14.01,2013-10-30 19:44:00,
2013-10-30 14:45:00,62.6,39.8,0.00,NW,315,3.6,8.7,43,0.00,,---,0.00,VWS V14.01,2013-10-30 19:45:00,
2013-10-30 14:47:00,62.4,40.3,0.00,North,0,3.1,4.7,44,0.00,,---,0.00,VWS V14.01,2013-10-30 19:47:00,
2013-10-30 14:48:00,62.8,40.0,0.00,NW,315,2.9,4.7,43,0.00,,---,0.00,VWS V14.01,2013-10-30 19:48:00,
2013-10-30 14:49:00,63.0,40.2,0.00,NW,315,3.1,5.8,43,0.00,,---,0.00,VWS V14.01,2013-10-30 19:49:00,
2013-10-30 14:50:00,63.0,40.2,0.00,North,0,4.9,6.9,43,0.00,,---,0.00,VWS V14.01,2013-10-30 19:50:00,
2013-10-30 14:51:00,63.0,39.5,0.00,North,0,2.5,6.9,42,0.00,,---,0.00,VWS V14.01,2013-10-30 19:51:00,
2013-10-30 14:52:00,63.0,40.2,0.00,NW,315,3.6,6.9,43,0.00,,---,0.00,VWS V14.01,2013-10-30 19:52:00,
2013-10-30 14:53:00,63.0,40.2,0.00,North,0,3.8,6.9,43,0.00,,---,0.00,VWS V14.01,2013-10-30 19:53:00,
2013-10-30 14:54:00,63.0,39.5,0.00,NW,315,4.9,6.9,42,0.00,,---,0.00,VWS V14.01,2013-10-30 19:54:00,
2013-10-30 14:55:00,63.0,39.5,0.00,NW,315,4.9,6.9,42,0.00,,---,0.00,VWS V14.01,2013-10-30 19:55:00,
2013-10-30 14:56:00,63.3,39.9,0.00,NW,315,4.7,6.9,42,0.00,,---,0.00,VWS V14.01,2013-10-30 19:56:00,
2013-10-30 14:57:00,63.2,40.3,0.00,NW,315,3.8,6.9,43,0.00,,---,0.00,VWS V14.01,2013-10-30 19:57:00,
2013-10-30 14:58:00,63.2,39.7,0.00,NW,315,5.4,6.9,42,0.00,,---,0.00,VWS V14.01,2013-10-30 19:58:00,
2013-10-30 14:59:00,63.2,39.7,0.00,North,0,3.6,6.9,42,0.00,,---,0.00,VWS V14.01,2013-10-30 19:59:00,
2013-10-30 15:00:00,63.2,39.7,0.00,North,0,3.6,6.9,42,0.00,,---,0.00,VWS V14.01,2013-10-30 20:00:00,
2013-10-30 15:01:00,63.3,39.9,0.00,NW,315,6.3,6.3,42,0.00,,---,0.00,VWS V14.01,2013-10-30 20:01:00,
2013-10-30 15:02:00,63.0,38.9,0.00,North,0,5.6,6.3,41,0.00,,---,0.00,VWS V14.01,2013-10-30 20:02:00,
2013-10-30 15:03:00,63.0,38.9,0.00,North,0,4.9,6.3,41,0.00,,---,0.00,VWS V14.01,2013-10-30 20:03:00,
2013-10-30 15:04:00,62.6,39.2,0.00,NW,315,4.7,6.3,42,0.00,,---,0.00,VWS V14.01,2013-10-30 20:04:00,
2013-10-30 15:05:00,63.2,39.1,0.00,NNW,338,3.1,6.3,41,0.00,,---,0.00,VWS V14.01,2013-10-30 20:05:00,
2013-10-30 15:06:00,63.2,39.1,0.00,WNW,292,4.3,6.3,41,0.00,,---,0.00,VWS V14.01,2013-10-30 20:06:00,
2013-10-30 15:07:00,63.2,39.1,0.00,NW,315,5.4,6.3,41,0.00,,---,0.00,VWS V14.01,2013-10-30 20:07:00,
2013-10-30 15:08:00,63.2,39.1,0.00,NW,315,5.4,6.3,41,0.00,,---,0.00,VWS V14.01,2013-10-30 20:08:00,
2013-10-30 15:09:00,63.2,39.1,0.00,NW,315,6.5,6.5,41,0.00,,---,0.00,VWS V14.01,2013-10-30 20:09:00,
2013-10-30 15:10:00,63.2,39.1,0.00,NW,315,3.4,6.5,41,0.00,,---,0.00,VWS V14.01,2013-10-30 20:10:00,
2013-10-30 15:11:00,63.2,39.1,0.00,NW,315,3.6,6.5,41,0.00,,---,0.00,VWS V14.01,2013-10-30 20:11:00,
2013-10-30 15:12:00,62.8,38.1,0.00,NW,315,3.1,6.5,40,0.00,,---,0.00,VWS V14.01,2013-10-30 20:12:00,
2013-10-30 15:13:00,62.8,38.1,0.00,West,270,4.0,6.5,40,0.00,,---,0.00,VWS V14.01,2013-10-30 20:13:00,
2013-10-30 15:14:00,62.8,38.8,0.00,WSW,248,3.4,6.5,41,0.00,,---,0.00,VWS V14.01,2013-10-30 20:14:00,
2013-10-30 15:15:00,62.8,38.1,0.00,WNW,292,3.8,6.5,40,0.00,,---,0.00,VWS V14.01,2013-10-30 20:15:00,
2013-10-30 15:16:00,62.8,38.8,0.00,West,270,4.3,4.3,41,0.00,,---,0.00,VWS V14.01,2013-10-30 20:16:00,
2013-10-30 15:17:00,63.0,38.9,0.00,WSW,248,3.4,4.3,41,0.00,,---,0.00,VWS V14.01,2013-10-30 20:17:00,
2013-10-30 15:18:00,63.2,39.1,0.00,West,270,2.5,4.3,41,0.00,,---,0.00,VWS V14.01,2013-10-30 20:18:00,
2013-10-30 15:19:00,63.2,38.5,0.00,West,270,2.9,4.3,40,0.00,,---,0.00,VWS V14.01,2013-10-30 20:19:00,
2013-10-30 15:20:00,63.3,39.3,0.00,West,270,2.5,4.3,41,0.00,,---,0.00,VWS V14.01,2013-10-30 20:20:00,
2013-10-30 15:21:00,63.3,38.6,0.00,West,270,2.5,4.3,40,0.00,,---,0.00,VWS V14.01,2013-10-30 20:21:00,
2013-10-30 15:22:00,63.5,39.4,0.00,West,270,3.4,4.3,41,0.00,,---,0.00,VWS V14.01,2013-10-30 20:22:00,
2013-10-30 15:23:00,63.5,39.4,0.00,WNW,292,1.6,4.3,41,0.00,,---,0.00,VWS V14.01,2013-10-30 20:23:00,
2013-10-30 15:24:00,63.5,39.4,0.00,NW,315,3.8,4.3,41,0.00,,---,0.00,VWS V14.01,2013-10-30 20:24:00,
2013-10-30 15:25:00,63.7,39.0,0.00,NW,315,2.5,4.3,40,0.00,,---,0.00,VWS V14.01,2013-10-30 20:25:00,
2013-10-30 15:26:00,63.5,38.8,0.00,WNW,292,3.6,4.9,40,0.00,,---,0.00,VWS V14.01,2013-10-30 20:26:00,
2013-10-30 15:27:00,63.3,38.6,0.00,West,270,2.5,4.9,40,0.00,,---,0.00,VWS V14.01,2013-10-30 20:27:00,
2013-10-30 15:28:00,63.3,38.6,0.00,West,270,2.9,4.9,40,0.00,,---,0.00,VWS V14.01,2013-10-30 20:28:00,
2013-10-30 15:29:00,63.3,38.6,0.00,West,270,2.9,4.9,40,0.00,,---,0.00,VWS V14.01,2013-10-30 20:29:00,
2013-10-30 15:30:00,63.3,38.6,0.00,WNW,292,4.3,4.9,40,0.00,,---,0.00,VWS V14.01,2013-10-30 20:30:00,
2013-10-30 15:31:00,63.3,38.6,0.00,West,270,3.1,4.3,40,0.00,,---,0.00,VWS V14.01,2013-10-30 20:31:00,
2013-10-30 15:32:00,63.2,38.5,0.00,West,270,2.2,4.3,40,0.00,,---,0.00,VWS V14.01,2013-10-30 20:32:00,
2013-10-30 15:33:00,63.2,38.5,0.00,West,270,3.1,4.3,40,0.00,,---,0.00,VWS V14.01,2013-10-30 20:33:00,
2013-10-30 15:34:00,63.2,38.5,0.00,West,270,3.1,4.3,40,0.00,,---,0.00,VWS V14.01,2013-10-30 20:34:00,
2013-10-30 15:35:00,63.3,38.6,0.00,West,270,2.7,4.3,40,0.00,,---,0.00,VWS V14.01,2013-10-30 20:35:00,
2013-10-30 15:36:00,63.2,38.5,0.00,West,270,2.7,4.3,40,0.00,,---,0.00,VWS V14.01,2013-10-30 20:36:00,
2013-10-30 15:37:00,63.2,38.5,0.00,West,270,2.7,4.3,40,0.00,,---,0.00,VWS V14.01,2013-10-30 20:37:00,
2013-10-30 15:38:00,63.2,39.1,0.00,West,270,2.0,4.3,41,0.00,,---,0.00,VWS V14.01,2013-10-30 20:38:00,
2013-10-30 15:39:00,63.2,39.1,0.00,West,270,2.7,4.3,41,0.00,,---,0.00,VWS V14.01,2013-10-30 20:39:00,
2013-10-30 15:40:00,63.2,38.5,0.00,West,270,1.3,4.3,40,0.00,,---,0.00,VWS V14.01,2013-10-30 20:40:00,
2013-10-30 15:41:00,63.2,38.5,0.00,West,270,2.5,4.3,40,0.00,,---,0.00,VWS V14.01,2013-10-30 20:41:00,
2013-10-30 15:42:00,63.2,38.5,0.00,West,270,2.9,4.3,40,0.00,,---,0.00,VWS V14.01,2013-10-30 20:42:00,
2013-10-30 15:43:00,63.0,38.9,0.00,West,270,1.3,4.3,41,0.00,,---,0.00,VWS V14.01,2013-10-30 20:43:00,
2013-10-30 15:44:00,63.2,39.1,0.00,West,270,2.5,4.3,41,0.00,,---,0.00,VWS V14.01,2013-10-30 20:44:00,
2013-10-30 15:45:00,63.2,38.5,0.00,West,270,3.1,4.3,40,0.00,,---,0.00,VWS V14.01,2013-10-30 20:45:00,
2013-10-30 15:46:00,63.2,39.1,0.00,West,270,2.5,3.1,41,0.00,,---,0.00,VWS V14.01,2013-10-30 20:46:00,
2013-10-30 15:47:00,63.2,38.5,0.00,West,270,2.2,3.1,40,0.00,,---,0.00,VWS V14.01,2013-10-30 20:47:00,
2013-10-30 15:48:00,63.2,38.5,0.00,West,270,2.7,3.1,40,0.00,,---,0.00,VWS V14.01,2013-10-30 20:48:00,
2013-10-30 15:49:00,63.2,39.1,0.00,West,270,1.6,3.1,41,0.00,,---,0.00,VWS V14.01,2013-10-30 20:49:00,
2013-10-30 15:50:00,63.2,38.5,0.00,West,270,2.0,3.1,40,0.00,,---,0.00,VWS V14.01,2013-10-30 20:50:00,
2013-10-30 15:51:00,63.2,38.5,0.00,West,270,0.9,3.1,40,0.00,,---,0.00,VWS V14.01,2013-10-30 20:51:00,
2013-10-30 15:52:00,63.0,38.9,0.00,SW,225,1.1,3.1,41,0.00,,---,0.00,VWS V14.01,2013-10-30 20:52:00,
2013-10-30 15:53:00,63.0,38.9,0.00,West,270,2.0,3.1,41,0.00,,---,0.00,VWS V14.01,2013-10-30 20:53:00,
2013-10-30 15:54:00,63.0,38.9,0.00,SW,225,2.0,3.1,41,0.00,,---,0.00,VWS V14.01,2013-10-30 20:54:00,
2013-10-30 15:55:00,63.0,38.9,0.00,West,270,2.5,3.1,41,0.00,,---,0.00,VWS V14.01,2013-10-30 20:55:00,
2013-10-30 15:56:00,63.0,38.3,0.00,West,270,2.5,3.1,40,0.00,,---,0.00,VWS V14.01,2013-10-30 20:56:00,
2013-10-30 15:57:00,63.0,38.9,0.00,West,270,0.0,3.1,41,0.00,,---,0.00,VWS V14.01,2013-10-30 20:57:00,
2013-10-30 15:58:00,63.0,38.9,0.00,South,180,1.6,3.1,41,0.00,,---,0.00,VWS V14.01,2013-10-30 20:58:00,
2013-10-30 15:59:00,63.0,38.9,0.00,SSW,202,0.9,3.1,41,0.00,,---,0.00,VWS V14.01,2013-10-30 20:59:00,
2013-10-30 16:00:00,63.0,38.9,0.00,West,270,2.0,3.1,41,0.00,,---,0.00,VWS V14.01,2013-10-30 21:00:00,
2013-10-30 16:01:00,63.0,38.9,0.00,SW,225,2.0,2.0,41,0.00,,---,0.00,VWS V14.01,2013-10-30 21:01:00,
2013-10-30 16:02:00,62.6,38.6,0.00,SW,225,0.0,2.0,41,0.00,,---,0.00,VWS V14.01,2013-10-30 21:02:00,
2013-10-30 16:03:00,62.3,38.3,0.00,SW,225,1.3,2.5,41,0.00,,---,0.00,VWS V14.01,2013-10-30 21:03:00,
2013-10-30 16:04:00,62.3,38.3,0.00,SW,225,1.3,2.5,41,0.00,,---,0.00,VWS V14.01,2013-10-30 21:04:00,
2013-10-30 16:05:00,62.3,38.3,0.00,SW,225,2.2,2.5,41,0.00,,---,0.00,VWS V14.01,2013-10-30 21:05:00,
2013-10-30 16:06:00,62.3,38.3,0.00,SW,225,1.1,2.5,41,0.00,,---,0.00,VWS V14.01,2013-10-30 21:06:00,
2013-10-30 16:07:00,60.1,37.0,0.00,SSW,202,2.0,2.5,42,0.00,,---,0.00,VWS V14.01,2013-10-30 21:07:00,
2013-10-30 16:08:00,59.7,36.6,0.00,SSW,202,2.7,2.7,42,0.00,,---,0.00,VWS V14.01,2013-10-30 21:08:00,
2013-10-30 16:09:00,59.6,36.5,0.00,South,180,3.4,3.4,42,0.00,,---,0.00,VWS V14.01,2013-10-30 21:09:00,
2013-10-30 16:10:00,58.8,36.4,0.00,SW,225,2.7,3.4,43,0.00,,---,0.00,VWS V14.01,2013-10-30 21:10:00,
2013-10-30 16:12:00,58.8,36.4,0.00,SSW,202,3.4,3.4,43,0.00,,---,0.00,VWS V14.01,2013-10-30 21:12:00,
2013-10-30 16:13:00,58.1,36.3,0.00,SSW,202,3.8,3.8,44,0.00,,---,0.00,VWS V14.01,2013-10-30 21:13:00,
2013-10-30 16:14:00,57.8,36.0,0.00,SW,225,2.9,3.8,44,0.00,,---,0.00,VWS V14.01,2013-10-30 21:14:00,
2013-10-30 16:15:00,57.4,36.2,0.00,South,180,2.9,3.8,45,0.00,,---,0.00,VWS V14.01,2013-10-30 21:15:00,
2013-10-30 16:16:00,57.2,36.6,0.00,South,180,3.8,3.8,46,0.00,,---,0.00,VWS V14.01,2013-10-30 21:16:00,
2013-10-30 16:17:00,56.7,36.2,0.00,SSW,202,3.6,3.8,46,0.00,,---,0.00,VWS V14.01,2013-10-30 21:17:00,
2013-10-30 16:18:00,56.5,36.5,0.00,South,180,2.7,3.8,47,0.00,,---,0.00,VWS V14.01,2013-10-30 21:18:00,
2013-10-30 16:19:00,56.5,36.5,0.00,South,180,2.7,3.8,47,0.00,,---,0.00,VWS V14.01,2013-10-30 21:19:00,
2013-10-30 16:20:00,56.0,36.0,0.00,South,180,2.0,3.8,47,0.00,,---,0.00,VWS V14.01,2013-10-30 21:20:00,
2013-10-30 16:21:00,55.8,35.9,0.00,South,180,2.2,3.8,47,0.00,,---,0.00,VWS V14.01,2013-10-30 21:21:00,
2013-10-30 16:22:00,55.6,36.2,0.00,South,180,1.6,3.8,48,0.00,,---,0.00,VWS V14.01,2013-10-30 21:22:00,
2013-10-30 16:23:00,55.4,36.1,0.00,South,180,1.6,3.8,48,0.00,,---,0.00,VWS V14.01,2013-10-30 21:23:00,
2013-10-30 16:24:00,55.2,35.9,0.00,SSE,158,2.9,3.8,48,0.00,,---,0.00,VWS V14.01,2013-10-30 21:24:00,
2013-10-30 16:25:00,55.1,36.3,0.00,South,180,3.4,3.8,49,0.00,,---,0.00,VWS V14.01,2013-10-30 21:25:00,
2013-10-30 16:26:00,54.9,36.1,0.00,South,180,3.6,3.8,49,0.00,,---,0.00,VWS V14.01,2013-10-30 21:26:00,
2013-10-30 16:27:00,54.7,35.9,0.00,South,180,3.4,3.8,49,0.00,,---,0.00,VWS V14.01,2013-10-30 21:27:00,
2013-10-30 16:28:00,54.5,35.8,0.00,South,180,2.9,3.8,49,0.00,,---,0.00,VWS V14.01,2013-10-30 21:28:00,
2013-10-30 16:29:00,54.3,36.1,0.00,South,180,2.7,3.8,50,0.00,,---,0.00,VWS V14.01,2013-10-30 21:29:00,
2013-10-30 16:30:00,54.2,36.0,0.00,South,180,2.5,3.8,50,0.00,,---,0.00,VWS V14.01,2013-10-30 21:30:00,
2013-10-30 16:31:00,54.0,36.3,0.00,SSE,158,2.7,2.7,51,0.00,,---,0.00,VWS V14.01,2013-10-30 21:31:00,
2013-10-30 16:32:00,53.8,36.1,0.00,SSE,158,1.3,2.7,51,0.00,,---,0.00,VWS V14.01,2013-10-30 21:32:00,
2013-10-30 16:33:00,53.8,36.1,0.00,SSE,158,1.3,2.7,51,0.00,,---,0.00,VWS V14.01,2013-10-30 21:33:00,
2013-10-30 16:34:00,53.3,35.6,0.00,SSE,158,1.3,2.7,51,0.00,,---,0.00,VWS V14.01,2013-10-30 21:34:00,
2013-10-30 16:35:00,53.1,35.9,0.00,SSE,158,1.3,2.7,52,0.00,,---,0.00,VWS V14.01,2013-10-30 21:35:00,
2013-10-30 16:36:00,52.9,35.8,0.00,SSE,158,1.3,2.7,52,0.00,,---,0.00,VWS V14.01,2013-10-30 21:36:00,
2013-10-30 16:37:00,52.9,36.2,0.00,SSE,158,1.1,2.7,53,0.00,,---,0.00,VWS V14.01,2013-10-30 21:37:00,
2013-10-30 16:38:00,52.7,36.1,0.00,SSE,158,1.3,2.7,53,0.00,,---,0.00,VWS V14.01,2013-10-30 21:38:00,
2013-10-30 16:39:00,52.5,35.9,0.00,SSE,158,0.0,2.7,53,0.00,,---,0.00,VWS V14.01,2013-10-30 21:39:00,
2013-10-30 16:40:00,52.2,36.0,0.00,SSE,158,1.3,2.7,54,0.00,,---,0.00,VWS V14.01,2013-10-30 21:40:00,
2013-10-30 16:41:00,52.2,36.0,0.00,SSE,158,1.1,2.7,54,0.00,,---,0.00,VWS V14.01,2013-10-30 21:41:00,
2013-10-30 16:42:00,52.2,36.0,0.00,SSE,158,1.1,2.7,54,0.00,,---,0.00,VWS V14.01,2013-10-30 21:42:00,
2013-10-30 16:43:00,52.0,35.9,0.00,SSE,158,1.6,2.7,54,0.00,,---,0.00,VWS V14.01,2013-10-30 21:43:00,
2013-10-30 16:44:00,52.0,35.9,0.00,SSE,158,1.6,2.7,54,0.00,,---,0.00,VWS V14.01,2013-10-30 21:44:00,
2013-10-30 16:45:00,51.8,36.2,0.00,SSE,158,2.0,2.7,55,0.00,,---,0.00,VWS V14.01,2013-10-30 21:45:00,
2013-10-30 16:46:00,51.6,35.5,0.00,SE,135,1.1,2.0,54,0.00,,---,0.00,VWS V14.01,2013-10-30 21:46:00,
2013-10-30 16:47:00,51.5,35.4,0.00,SSE,158,1.3,2.0,54,0.00,,---,0.00,VWS V14.01,2013-10-30 21:47:00,
2013-10-30 16:48:00,51.1,36.0,0.00,SSE,158,2.5,2.5,56,0.00,,---,0.00,VWS V14.01,2013-10-30 21:48:00,
2013-10-30 16:49:00,51.1,36.0,0.00,South,180,2.5,2.5,56,0.00,,---,0.00,VWS V14.01,2013-10-30 21:49:00,
2013-10-30 16:50:00,51.1,36.0,0.00,SE,135,2.7,2.7,56,0.00,,---,0.00,VWS V14.01,2013-10-30 21:50:00,
2013-10-30 16:51:00,51.1,36.0,0.00,SE,135,2.0,2.7,56,0.00,,---,0.00,VWS V14.01,2013-10-30 21:51:00,
2013-10-30 16:52:00,50.9,36.7,0.00,South,180,1.6,2.7,58,0.00,,---,0.00,VWS V14.01,2013-10-30 21:52:00,
2013-10-30 16:53:00,50.9,36.7,0.00,South,180,2.5,2.7,58,0.00,,---,0.00,VWS V14.01,2013-10-30 21:53:00,
2013-10-30 16:54:00,50.7,37.0,0.00,South,180,1.6,2.7,59,0.00,,---,0.00,VWS V14.01,2013-10-30 21:54:00,
2013-10-30 16:55:00,50.7,37.4,0.00,SSW,202,2.0,2.7,60,0.00,,---,0.00,VWS V14.01,2013-10-30 21:55:00,
2013-10-30 16:56:00,50.7,37.4,0.00,South,180,2.0,2.7,60,0.00,,---,0.00,VWS V14.01,2013-10-30 21:56:00,
2013-10-30 16:57:00,50.6,37.2,0.00,South,180,0.0,2.7,60,0.00,,---,0.00,VWS V14.01,2013-10-30 21:57:00,
2013-10-30 16:58:00,50.6,36.8,0.00,South,180,0.0,2.7,59,0.00,,---,0.00,VWS V14.01,2013-10-30 21:58:00,
2013-10-30 16:59:00,50.4,36.6,0.00,South,180,0.0,2.7,59,0.00,,---,0.00,VWS V14.01,2013-10-30 21:59:00,
2013-10-30 17:00:00,50.4,36.6,0.00,South,180,1.3,2.7,59,0.00,,---,0.00,VWS V14.01,2013-10-30 22:00:00,
2013-10-30 17:01:00,50.4,36.6,0.00,South,180,0.0,1.3,59,0.00,,---,0.00,VWS V14.01,2013-10-30 22:01:00,
2013-10-30 17:02:00,50.2,36.0,0.00,South,180,0.0,1.3,58,0.00,,---,0.00,VWS V14.01,2013-10-30 22:02:00,
2013-10-30 17:03:00,50.0,35.8,0.00,South,180,0.0,1.3,58,0.00,,---,0.00,VWS V14.01,2013-10-30 22:03:00,
2013-10-30 17:04:00,49.8,36.9,0.00,South,180,0.0,1.6,61,0.00,,---,0.00,VWS V14.01,2013-10-30 22:04:00,
2013-10-30 17:05:00,49.8,36.5,0.00,South,180,0.0,1.6,60,0.00,,---,0.00,VWS V14.01,2013-10-30 22:05:00,
2013-10-30 17:06:00,49.7,36.4,0.00,South,180,0.0,1.6,60,0.00,,---,0.00,VWS V14.01,2013-10-30 22:06:00,
2013-10-30 17:07:00,49.7,36.4,0.00,South,180,0.0,1.6,60,0.00,,---,0.00,VWS V14.01,2013-10-30 22:07:00,
2013-10-30 17:08:00,49.7,37.2,0.00,South,180,1.1,1.6,62,0.00,,---,0.00,VWS V14.01,2013-10-30 22:08:00,
2013-10-30 17:09:00,49.5,37.4,0.00,South,180,1.3,1.6,63,0.00,,---,0.00,VWS V14.01,2013-10-30 22:09:00,
2013-10-30 17:10:00,49.5,38.2,0.00,South,180,2.0,2.0,65,0.00,,---,0.00,VWS V14.01,2013-10-30 22:10:00,
2013-10-30 17:11:00,49.3,38.0,0.00,South,180,1.1,2.0,65,0.00,,---,0.00,VWS V14.01,2013-10-30 22:11:00,
2013-10-30 17:12:00,49.3,38.4,0.00,South,180,1.1,2.0,66,0.00,,---,0.00,VWS V14.01,2013-10-30 22:12:00,
2013-10-30 17:13:00,49.3,38.0,0.00,South,180,0.0,2.0,65,0.00,,---,0.00,VWS V14.01,2013-10-30 22:13:00,
2013-10-30 17:14:00,49.1,37.1,0.00,South,180,0.0,2.0,63,0.00,,---,0.00,VWS V14.01,2013-10-30 22:14:00,
2013-10-30 17:15:00,48.9,36.5,0.00,NE,45,2.7,2.7,62,0.00,,---,0.00,VWS V14.01,2013-10-30 22:15:00,
2013-10-30 17:16:00,48.8,35.9,0.00,NE,45,3.1,3.1,61,0.00,,---,0.00,VWS V14.01,2013-10-30 22:16:00,
2013-10-30 17:17:00,48.8,35.9,0.00,NE,45,2.9,3.1,61,0.00,,---,0.00,VWS V14.01,2013-10-30 22:17:00,
2013-10-30 17:18:00,48.2,35.4,0.00,NE,45,2.9,3.1,61,0.00,,---,0.00,VWS V14.01,2013-10-30 22:18:00,
2013-10-30 17:20:00,48.2,35.4,0.00,NE,45,1.3,3.1,61,0.00,,---,0.00,VWS V14.01,2013-10-30 22:20:00,
2013-10-30 17:21:00,47.9,35.5,0.00,NE,45,0.0,3.1,62,0.00,,---,0.00,VWS V14.01,2013-10-30 22:21:00,
2013-10-30 17:23:00,47.9,35.9,0.00,NE,45,0.0,3.1,63,0.00,,---,0.00,VWS V14.01,2013-10-30 22:23:00,
2013-10-30 17:24:00,47.7,35.7,0.00,NE,45,0.0,3.1,63,0.00,,---,0.00,VWS V14.01,2013-10-30 22:24:00,
2013-10-30 17:25:00,47.7,36.1,0.00,NE,45,0.0,3.1,64,0.00,,---,0.00,VWS V14.01,2013-10-30 22:25:00,
2013-10-30 17:26:00,47.3,35.8,0.00,NE,45,2.7,3.1,64,0.00,,---,0.00,VWS V14.01,2013-10-30 22:26:00,
2013-10-30 17:28:00,47.3,35.8,0.00,NE,45,2.9,3.1,64,0.00,,---,0.00,VWS V14.01,2013-10-30 22:28:00,
2013-10-30 17:29:00,46.6,34.3,0.00,NE,45,2.7,3.1,62,0.00,,---,0.00,VWS V14.01,2013-10-30 22:29:00,
2013-10-30 17:31:00,46.2,34.3,0.00,NE,45,2.5,3.1,63,0.00,,---,0.00,VWS V14.01,2013-10-30 22:31:00,
2013-10-30 17:32:00,46.1,34.6,0.00,NE,45,2.5,3.1,64,0.00,,---,0.00,VWS V14.01,2013-10-30 22:32:00,
2013-10-30 17:34:00,46.1,34.6,0.00,NE,45,2.0,3.1,64,0.00,,---,0.00,VWS V14.01,2013-10-30 22:34:00,
2013-10-30 17:35:00,46.2,36.6,0.00,NE,45,1.1,3.1,69,0.00,,---,0.00,VWS V14.01,2013-10-30 22:35:00,
2013-10-30 17:36:00,46.6,37.3,0.00,NE,45,1.3,3.1,70,0.00,,---,0.00,VWS V14.01,2013-10-30 22:36:00,
2013-10-30 17:37:00,46.6,37.3,0.00,NE,45,2.0,3.1,70,0.00,,---,0.00,VWS V14.01,2013-10-30 22:37:00,
2013-10-30 17:38:00,46.6,37.3,0.00,NE,45,2.5,3.1,70,0.00,,---,0.00,VWS V14.01,2013-10-30 22:38:00,
2013-10-30 17:39:00,46.6,37.3,0.00,NNW,338,2.7,3.1,70,0.00,,---,0.00,VWS V14.01,2013-10-30 22:39:00,
2013-10-30 17:40:00,46.1,36.5,0.00,North,0,3.6,3.6,69,0.00,,---,0.00,VWS V14.01,2013-10-30 22:40:00,
2013-10-30 17:41:00,45.7,35.8,0.00,North,0,3.1,3.6,68,0.00,,---,0.00,VWS V14.01,2013-10-30 22:41:00,
2013-10-30 17:42:00,45.3,35.0,0.00,North,0,2.9,3.6,67,0.00,,---,0.00,VWS V14.01,2013-10-30 22:42:00,
2013-10-30 17:43:00,45.3,35.4,0.00,North,0,2.7,3.6,68,0.00,,---,0.00,VWS V14.01,2013-10-30 22:43:00,
2013-10-30 17:45:00,45.5,36.3,0.00,North,0,2.2,3.6,70,0.00,,---,0.00,VWS V14.01,2013-10-30 22:45:00,
2013-10-30 17:46:00,45.7,37.2,0.00,North,0,0.0,2.2,72,0.00,,---,0.00,VWS V14.01,2013-10-30 22:46:00,
2013-10-30 17:47:00,45.7,36.8,0.00,North,0,0.0,2.2,71,0.00,,---,0.00,VWS V14.01,2013-10-30 22:47:00,
2013-10-30 17:48:00,45.7,36.5,0.00,North,0,0.0,2.2,70,0.00,,---,0.00,VWS V14.01,2013-10-30 22:48:00,
2013-10-30 17:49:00,45.7,36.5,0.00,North,0,0.0,2.2,70,0.00,,---,0.00,VWS V14.01,2013-10-30 22:49:00,
2013-10-30 17:50:00,45.5,36.3,0.00,North,0,0.0,2.2,70,0.00,,---,0.00,VWS V14.01,2013-10-30 22:50:00,
2013-10-30 17:51:00,45.3,36.1,0.00,North,0,2.5,2.5,70,0.00,,---,0.00,VWS V14.01,2013-10-30 22:51:00,
2013-10-30 17:52:00,45.0,35.8,0.00,NW,315,3.1,3.8,70,0.00,,---,0.00,VWS V14.01,2013-10-30 22:52:00,
2013-10-30 17:53:00,44.6,35.1,0.00,NW,315,2.0,3.8,69,0.00,,---,0.00,VWS V14.01,2013-10-30 22:53:00,
2013-10-30 17:54:00,44.3,34.8,0.00,NE,45,1.6,3.8,69,0.00,,---,0.00,VWS V14.01,2013-10-30 22:54:00,
2013-10-30 17:55:00,43.9,34.0,0.00,NE,45,2.5,3.8,68,0.00,,---,0.00,VWS V14.01,2013-10-30 22:55:00,
2013-10-30 17:56:00,43.7,33.5,0.00,NE,45,2.2,3.8,67,0.00,,---,0.00,VWS V14.01,2013-10-30 22:56:00,
2013-10-30 17:57:00,43.7,34.2,0.00,NE,45,2.0,3.8,69,0.00,,---,0.00,VWS V14.01,2013-10-30 22:57:00,
2013-10-30 17:58:00,43.7,34.6,0.00,NE,45,2.5,3.8,70,0.00,,---,0.00,VWS V14.01,2013-10-30 22:58:00,
2013-10-30 17:59:00,43.7,34.6,0.00,NE,45,0.0,3.8,70,0.00,,---,0.00,VWS V14.01,2013-10-30 22:59:00,
2013-10-30 18:00:00,43.7,34.6,0.00,NE,45,0.0,3.8,70,0.00,,---,0.00,VWS V14.01,2013-10-30 23:00:00,
2013-10-30 18:01:00,43.7,35.0,0.00,NE,45,0.0,0.0,71,0.00,,---,0.00,VWS V14.01,2013-10-30 23:01:00,
2013-10-30 18:02:00,43.7,35.7,0.00,NE,45,0.0,0.0,73,0.00,,---,0.00,VWS V14.01,2013-10-30 23:02:00,
2013-10-30 18:03:00,43.7,35.3,0.00,NE,45,0.0,0.0,72,0.00,,---,0.00,VWS V14.01,2013-10-30 23:03:00,
2013-10-30 18:04:00,43.5,35.5,0.00,NW,315,3.8,3.8,73,0.00,,---,0.00,VWS V14.01,2013-10-30 23:04:00,
2013-10-30 18:05:00,43.5,35.8,0.00,NNW,338,3.4,4.3,74,0.00,,---,0.00,VWS V14.01,2013-10-30 23:05:00,
2013-10-30 18:06:00,43.2,35.5,0.00,North,0,3.1,4.3,74,0.00,,---,0.00,VWS V14.01,2013-10-30 23:06:00,
2013-10-30 18:07:00,43.2,35.5,0.00,North,0,2.7,4.3,74,0.00,,---,0.00,VWS V14.01,2013-10-30 23:07:00,
2013-10-30 18:08:00,43.2,35.8,0.00,North,0,2.5,4.3,75,0.00,,---,0.00,VWS V14.01,2013-10-30 23:08:00,
2013-10-30 18:09:00,43.2,35.8,0.00,North,0,2.5,4.3,75,0.00,,---,0.00,VWS V14.01,2013-10-30 23:09:00,
2013-10-30 18:10:00,43.2,35.8,0.00,North,0,2.7,4.3,75,0.00,,---,0.00,VWS V14.01,2013-10-30 23:10:00,
2013-10-30 18:11:00,43.2,36.1,0.00,North,0,2.0,4.3,76,0.00,,---,0.00,VWS V14.01,2013-10-30 23:11:00,
2013-10-30 18:12:00,43.2,36.1,0.00,North,0,2.2,4.3,76,0.00,,---,0.00,VWS V14.01,2013-10-30 23:12:00,
2013-10-30 18:13:00,43.0,36.0,0.00,North,0,2.0,4.3,76,0.00,,---,0.00,VWS V14.01,2013-10-30 23:13:00,
2013-10-30 18:14:00,43.0,36.0,0.00,North,0,0.0,4.3,76,0.00,,---,0.00,VWS V14.01,2013-10-30 23:14:00,
2013-10-30 18:15:00,43.0,36.0,0.00,North,0,1.6,4.3,76,0.00,,---,0.00,VWS V14.01,2013-10-30 23:15:00,
2013-10-30 18:16:00,43.0,36.0,0.00,North,0,2.5,2.5,76,0.00,,---,0.00,VWS V14.01,2013-10-30 23:16:00,
2013-10-30 18:17:00,43.0,36.0,0.00,North,0,1.1,2.5,76,0.00,,---,0.00,VWS V14.01,2013-10-30 23:17:00,
2013-10-30 18:18:00,43.0,36.0,0.00,NNW,338,2.7,2.7,76,0.00,,---,0.00,VWS V14.01,2013-10-30 23:18:00,
2013-10-30 18:19:00,43.0,36.6,0.00,North,0,2.7,3.1,78,0.00,,---,0.00,VWS V14.01,2013-10-30 23:19:00,
2013-10-30 18:20:00,43.0,36.6,0.00,North,0,2.2,3.1,78,0.00,,---,0.00,VWS V14.01,2013-10-30 23:20:00,
2013-10-30 18:21:00,43.0,36.6,0.00,North,0,2.5,3.1,78,0.00,,---,0.00,VWS V14.01,2013-10-30 23:21:00,
2013-10-30 18:22:00,43.0,36.6,0.00,North,0,2.0,3.1,78,0.00,,---,0.00,VWS V14.01,2013-10-30 23:22:00,
2013-10-30 18:23:00,43.0,36.6,0.00,North,0,1.6,3.1,78,0.00,,---,0.00,VWS V14.01,2013-10-30 23:23:00,
2013-10-30 18:24:00,43.0,36.6,0.00,North,0,1.3,3.1,78,0.00,,---,0.00,VWS V14.01,2013-10-30 23:24:00,
2013-10-30 18:25:00,42.8,36.5,0.00,North,0,0.0,3.1,78,0.00,,---,0.00,VWS V14.01,2013-10-30 23:25:00,
2013-10-30 18:26:00,42.8,36.5,0.00,North,0,0.0,3.1,78,0.00,,---,0.00,VWS V14.01,2013-10-30 23:26:00,
2013-10-30 18:27:00,42.6,36.3,0.00,NNW,338,3.4,3.8,78,0.00,,---,0.00,VWS V14.01,2013-10-30 23:27:00,
2013-10-30 18:28:00,42.6,36.3,0.00,NNW,338,2.5,3.8,78,0.00,,---,0.00,VWS V14.01,2013-10-30 23:28:00,
2013-10-30 18:29:00,42.6,36.3,0.00,NNW,338,2.5,3.8,78,0.00,,---,0.00,VWS V14.01,2013-10-30 23:29:00,
2013-10-30 18:30:00,42.3,35.6,0.00,NNW,338,2.5,3.8,77,0.00,,---,0.00,VWS V14.01,2013-10-30 23:30:00,
2013-10-30 18:31:00,42.1,35.4,0.00,NNW,338,2.7,3.4,77,0.00,,---,0.00,VWS V14.01,2013-10-30 23:31:00,
2013-10-30 18:32:00,42.1,35.4,0.00,NNW,338,3.1,3.4,77,0.00,,---,0.00,VWS V14.01,2013-10-30 23:32:00,
2013-10-30 18:33:00,42.1,35.4,0.00,NNW,338,3.1,3.4,77,0.00,,---,0.00,VWS V14.01,2013-10-30 23:33:00,
2013-10-30 18:34:00,41.7,35.4,0.00,North,0,2.9,3.4,78,0.00,,---,0.00,VWS V14.01,2013-10-30 23:34:00,
2013-10-30 18:35:00,41.7,35.4,0.00,North,0,2.0,3.4,78,0.00,,---,0.00,VWS V14.01,2013-10-30 23:35:00,
2013-10-30 18:36:00,41.7,35.4,0.00,North,0,2.7,3.4,78,0.00,,---,0.00,VWS V14.01,2013-10-30 23:36:00,
2013-10-30 18:37:00,41.7,35.4,0.00,North,0,2.5,3.4,78,0.00,,---,0.00,VWS V14.01,2013-10-30 23:37:00,
2013-10-30 18:38:00,41.9,35.9,0.00,North,0,2.7,3.4,79,0.00,,---,0.00,VWS V14.01,2013-10-30 23:38:00,
2013-10-30 18:39:00,41.9,36.2,0.00,North,0,2.2,3.4,80,0.00,,---,0.00,VWS V14.01,2013-10-30 23:39:00,
2013-10-30 18:40:00,41.9,36.5,0.00,North,0,2.5,3.4,81,0.00,,---,0.00,VWS V14.01,2013-10-30 23:40:00,
2013-10-30 18:41:00,41.9,36.5,0.00,North,0,2.9,3.4,81,0.00,,---,0.00,VWS V14.01,2013-10-30 23:41:00,
2013-10-30 18:42:00,42.1,37.3,0.00,NW,315,3.4,3.4,83,0.00,,---,0.00,VWS V14.01,2013-10-30 23:42:00,
2013-10-30 18:43:00,42.3,37.8,0.00,NW,315,3.6,4.0,84,0.00,,---,0.00,VWS V14.01,2013-10-30 23:43:00,
2013-10-30 18:44:00,42.1,37.6,0.00,NW,315,3.1,4.0,84,0.00,,---,0.00,VWS V14.01,2013-10-30 23:44:00,
2013-10-30 18:45:00,42.1,37.6,0.00,North,0,2.7,4.0,84,0.00,,---,0.00,VWS V14.01,2013-10-30 23:45:00,
2013-10-30 18:46:00,42.1,37.6,0.00,North,0,2.7,2.7,84,0.00,,---,0.00,VWS V14.01,2013-10-30 23:46:00,
2013-10-30 18:47:00,42.1,37.3,0.00,North,0,2.5,2.7,83,0.00,,---,0.00,VWS V14.01,2013-10-30 23:47:00,
2013-10-30 18:48:00,42.1,37.3,0.00,North,0,3.4,3.6,83,0.00,,---,0.00,VWS V14.01,2013-10-30 23:48:00,
2013-10-30 18:49:00,42.3,37.8,0.00,NNW,338,3.1,3.6,84,0.00,,---,0.00,VWS V14.01,2013-10-30 23:49:00,
2013-10-30 18:50:00,42.3,37.8,0.00,NNW,338,3.4,3.6,84,0.00,,---,0.00,VWS V14.01,2013-10-30 23:50:00,
2013-10-30 18:51:00,42.3,38.1,0.00,NNW,338,2.5,3.6,85,0.00,,---,0.00,VWS V14.01,2013-10-30 23:51:00,
2013-10-30 18:52:00,42.5,38.3,0.00,NNW,338,2.7,3.6,85,0.00,,---,0.00,VWS V14.01,2013-10-30 23:52:00,
2013-10-30 18:53:00,42.5,38.6,0.00,NW,315,3.1,3.6,86,0.00,,---,0.00,VWS V14.01,2013-10-30 23:53:00,
2013-10-30 18:54:00,42.5,38.6,0.00,NW,315,2.5,3.6,86,0.00,,---,0.00,VWS V14.01,2013-10-30 23:54:00,
2013-10-30 18:55:00,42.5,38.6,0.00,NW,315,1.6,3.6,86,0.00,,---,0.00,VWS V14.01,2013-10-30 23:55:00,
2013-10-30 18:56:00,42.5,38.6,0.00,NW,315,1.3,3.6,86,0.00,,---,0.00,VWS V14.01,2013-10-30 23:56:00,
2013-10-30 18:57:00,42.3,38.1,0.00,NW,315,0.0,3.6,85,0.00,,---,0.00,VWS V14.01,2013-10-30 23:57:00,
2013-10-30 18:58:00,42.3,37.8,0.00,NW,315,2.2,3.6,84,0.00,,---,0.00,VWS V14.01,2013-10-30 23:58:00,
2013-10-30 18:59:00,42.3,37.8,0.00,NW,315,1.1,3.6,84,0.00,,---,0.00,VWS V14.01,2013-10-30 23:59:00,
2013-10-30 19:00:00,42.3,37.8,0.00,NW,315,1.1,3.6,84,0.00,,---,0.00,VWS V14.01,2013-10-31 00:00:00,
2013-10-30 19:01:00,42.3,37.8,0.00,NW,315,2.5,2.5,84,0.00,,---,0.00,VWS V14.01,2013-10-31 00:01:00,
2013-10-30 19:02:00,41.9,36.8,0.00,NW,315,2.5,2.5,82,0.00,,---,0.00,VWS V14.01,2013-10-31 00:02:00,
2013-10-30 19:03:00,41.9,36.8,0.00,NW,315,2.7,2.7,82,0.00,,---,0.00,VWS V14.01,2013-10-31 00:03:00,
2013-10-30 19:04:00,41.7,36.7,0.00,NW,315,3.8,3.8,82,0.00,,---,0.00,VWS V14.01,2013-10-31 00:04:00,
2013-10-30 19:05:00,41.6,36.5,0.00,NW,315,2.0,3.8,82,0.00,,---,0.00,VWS V14.01,2013-10-31 00:05:00,
2013-10-30 19:06:00,41.6,36.5,0.00,NW,315,3.1,3.8,82,0.00,,---,0.00,VWS V14.01,2013-10-31 00:06:00,
2013-10-30 19:07:00,41.6,36.5,0.00,NW,315,2.9,3.8,82,0.00,,---,0.00,VWS V14.01,2013-10-31 00:07:00,
2013-10-30 19:08:00,41.4,36.3,0.00,NW,315,2.7,3.8,82,0.00,,---,0.00,VWS V14.01,2013-10-31 00:08:00,
2013-10-30 19:09:00,41.4,36.3,0.00,NW,315,2.2,3.8,82,0.00,,---,0.00,VWS V14.01,2013-10-31 00:09:00,
2013-10-30 19:10:00,41.4,36.3,0.00,NNW,338,2.5,3.8,82,0.00,,---,0.00,VWS V14.01,2013-10-31 00:10:00,
2013-10-30 19:11:00,41.4,36.3,0.00,North,0,2.5,3.8,82,0.00,,---,0.00,VWS V14.01,2013-10-31 00:11:00,
2013-10-30 19:12:00,41.2,36.1,0.00,North,0,2.0,3.8,82,0.00,,---,0.00,VWS V14.01,2013-10-31 00:12:00,
2013-10-30 19:13:00,41.0,36.0,0.00,NNW,338,2.2,3.8,82,0.00,,---,0.00,VWS V14.01,2013-10-31 00:13:00,
2013-10-30 19:14:00,40.8,35.5,0.00,North,0,1.6,3.8,81,0.00,,---,0.00,VWS V14.01,2013-10-31 00:14:00,
2013-10-30 19:15:00,40.8,35.2,0.00,North,0,0.0,0.0,80,0.00,,---,0.00,VWS V14.01,2013-10-31 00:15:00,
2013-10-30 19:16:00,40.7,35.0,0.00,WNW,292,2.2,2.2,80,0.00,,---,0.00,VWS V14.01,2013-10-31 00:16:00,
2013-10-30 19:17:00,40.7,35.0,0.00,West,270,0.0,2.2,80,0.00,,---,0.00,VWS V14.01,2013-10-31 00:17:00,
2013-10-30 19:18:00,40.7,35.0,0.00,West,270,0.0,2.2,80,0.00,,---,0.00,VWS V14.01,2013-10-31 00:18:00,
2013-10-30 19:19:00,40.7,35.0,0.00,West,270,0.0,2.2,80,0.00,,---,0.00,VWS V14.01,2013-10-31 00:19:00,
2013-10-30 19:20:00,40.7,35.0,0.00,NW,315,2.2,2.2,80,0.00,,---,0.00,VWS V14.01,2013-10-31 00:20:00,
2013-10-30 19:21:00,39.9,34.0,0.00,NW,315,1.6,2.2,79,0.00,,---,0.00,VWS V14.01,2013-10-31 00:21:00,
2013-10-30 19:22:00,39.9,34.0,0.00,NW,315,2.0,2.2,79,0.00,,---,0.00,VWS V14.01,2013-10-31 00:22:00,
2013-10-30 19:23:00,39.8,33.8,0.00,NW,315,0.0,2.2,79,0.00,,---,0.00,VWS V14.01,2013-10-31 00:23:00,
2013-10-30 19:24:00,39.6,33.6,0.00,NW,315,1.6,2.2,79,0.00,,---,0.00,VWS V14.01,2013-10-31 00:24:00,
2013-10-30 19:25:00,39.6,33.6,0.00,NW,315,2.5,2.5,79,0.00,,---,0.00,VWS V14.01,2013-10-31 00:25:00,
2013-10-30 19:26:00,39.4,33.4,0.00,NW,315,2.2,2.5,79,0.00,,---,0.00,VWS V14.01,2013-10-31 00:26:00,
2013-10-30 19:27:00,39.0,33.4,0.00,North,0,2.0,2.5,80,0.00,,---,0.00,VWS V14.01,2013-10-31 00:27:00,
2013-10-30 19:28:00,39.0,33.4,0.00,North,0,2.5,2.5,80,0.00,,---,0.00,VWS V14.01,2013-10-31 00:28:00,
2013-10-30 19:29:00,38.9,33.2,0.00,North,0,2.2,2.5,80,0.00,,---,0.00,VWS V14.01,2013-10-31 00:29:00,
2013-10-30 19:30:00,38.9,33.5,0.00,North,0,1.1,2.5,81,0.00,,---,0.00,VWS V14.01,2013-10-31 00:30:00,
2013-10-30 19:31:00,38.7,33.4,0.00,North,0,0.0,1.6,81,0.00,,---,0.00,VWS V14.01,2013-10-31 00:31:00,
2013-10-30 19:32:00,38.7,33.4,0.00,North,0,0.0,1.6,81,0.00,,---,0.00,VWS V14.01,2013-10-31 00:32:00,
2013-10-30 19:33:00,38.7,33.4,0.00,SW,225,0.0,1.6,81,0.00,,---,0.00,VWS V14.01,2013-10-31 00:33:00,
2013-10-30 19:34:00,38.7,33.0,0.00,West,270,0.9,1.6,80,0.00,,---,0.00,VWS V14.01,2013-10-31 00:34:00,
2013-10-30 19:35:00,38.7,33.4,0.00,West,270,2.2,2.2,81,0.00,,---,0.00,VWS V14.01,2013-10-31 00:35:00,
2013-10-30 19:36:00,38.5,33.2,0.00,West,270,2.0,2.2,81,0.00,,---,0.00,VWS V14.01,2013-10-31 00:36:00,
2013-10-30 19:37:00,38.1,32.5,0.00,SSW,202,1.6,2.2,80,0.00,,---,0.00,VWS V14.01,2013-10-31 00:37:00,
2013-10-30 19:38:00,37.6,31.4,0.00,SSW,202,0.0,2.2,78,0.00,,---,0.00,VWS V14.01,2013-10-31 00:38:00,
2013-10-30 19:39:00,37.2,30.7,0.00,SSW,202,0.0,2.2,77,0.00,,---,0.00,VWS V14.01,2013-10-31 00:39:00,
2013-10-30 19:40:00,37.1,30.5,0.00,SSW,202,0.0,2.2,77,0.00,,---,0.00,VWS V14.01,2013-10-31 00:40:00,
2013-10-30 19:41:00,36.9,30.4,0.00,NW,315,2.0,2.2,77,0.00,,---,0.00,VWS V14.01,2013-10-31 00:41:00,
2013-10-30 19:42:00,37.1,31.2,0.00,NW,315,1.3,2.2,79,0.00,,---,0.00,VWS V14.01,2013-10-31 00:42:00,
2013-10-30 19:43:00,37.1,31.2,0.00,NW,315,1.1,2.2,79,0.00,,---,0.00,VWS V14.01,2013-10-31 00:43:00,
2013-10-30 19:44:00,45.5,36.3,0.00,North,0,2.2,3.6,70,0.00,,---,0.00,VWS V14.01,2013-10-31 00:44:00,
2013-10-30 19:45:00,37.1,31.5,0.00,NW,315,0.0,2.2,80,0.00,,---,0.00,VWS V14.01,2013-10-31 00:45:00,
2013-10-30 19:46:00,37.6,32.3,0.00,SW,225,2.0,2.0,81,0.00,,---,0.00,VWS V14.01,2013-10-31 00:46:00,
2013-10-30 19:47:00,37.6,32.3,0.00,SW,225,0.0,2.0,81,0.00,,---,0.00,VWS V14.01,2013-10-31 00:47:00,
2013-10-30 19:48:00,38.0,33.3,0.00,SW,225,0.0,2.0,83,0.00,,---,0.00,VWS V14.01,2013-10-31 00:48:00,
2013-10-30 19:49:00,38.1,34.3,0.00,SW,225,0.0,2.0,86,0.00,,---,0.00,VWS V14.01,2013-10-31 00:49:00,
2013-10-30 19:50:00,38.3,34.5,0.00,SW,225,0.0,2.0,86,0.00,,---,0.00,VWS V14.01,2013-10-31 00:50:00,
2013-10-30 19:52:00,38.1,34.3,0.00,NE,45,1.3,2.0,86,0.00,,---,0.00,VWS V14.01,2013-10-31 00:52:00,
2013-10-30 19:53:00,38.1,34.3,0.00,NE,45,2.5,2.5,86,0.00,,---,0.00,VWS V14.01,2013-10-31 00:53:00,
2013-10-30 19:54:00,38.3,34.5,0.00,NE,45,2.7,2.7,86,0.00,,---,0.00,VWS V14.01,2013-10-31 00:54:00,
2013-10-30 19:55:00,38.3,34.5,0.00,NE,45,2.5,2.9,86,0.00,,---,0.00,VWS V14.01,2013-10-31 00:55:00,
2013-10-30 19:56:00,38.3,34.5,0.00,NE,45,3.1,3.1,86,0.00,,---,0.00,VWS V14.01,2013-10-31 00:56:00,
2013-10-30 19:57:00,38.1,34.6,0.00,NNE,22,3.4,3.4,87,0.00,,---,0.00,VWS V14.01,2013-10-31 00:57:00,
2013-10-30 19:58:00,38.1,34.6,0.00,North,0,3.4,3.4,87,0.00,,---,0.00,VWS V14.01,2013-10-31 00:58:00,
2013-10-30 19:59:00,38.0,34.4,0.00,North,0,3.1,3.4,87,0.00,,---,0.00,VWS V14.01,2013-10-31 00:59:00,
2013-10-30 20:00:00,38.0,34.4,0.00,North,0,2.5,3.4,87,0.00,,---,0.00,VWS V14.01,2013-10-31 01:00:00,
2013-10-30 20:01:00,37.8,34.3,0.00,North,0,2.9,2.9,87,0.00,,---,0.00,VWS V14.01,2013-10-31 01:01:00,
2013-10-30 20:02:00,37.6,34.1,0.00,North,0,2.7,2.9,87,0.00,,---,0.00,VWS V14.01,2013-10-31 01:02:00,
2013-10-30 20:03:00,37.6,34.1,0.00,North,0,1.6,2.9,87,0.00,,---,0.00,VWS V14.01,2013-10-31 01:03:00,
2013-10-30 20:04:00,37.6,34.1,0.00,North,0,0.0,2.9,87,0.00,,---,0.00,VWS V14.01,2013-10-31 01:04:00,
2013-10-30 20:05:00,37.6,34.1,0.00,North,0,0.0,2.9,87,0.00,,---,0.00,VWS V14.01,2013-10-31 01:05:00,
2013-10-30 20:06:00,37.6,34.1,0.00,North,0,0.0,2.9,87,0.00,,---,0.00,VWS V14.01,2013-10-31 01:06:00,
2013-10-30 20:07:00,37.4,33.9,0.00,North,0,0.0,2.9,87,0.00,,---,0.00,VWS V14.01,2013-10-31 01:07:00,
2013-10-30 20:08:00,37.4,33.9,0.00,North,0,0.0,2.9,87,0.00,,---,0.00,VWS V14.01,2013-10-31 01:08:00,
2013-10-30 20:09:00,37.1,33.3,0.00,North,0,1.1,2.9,86,0.00,,---,0.00,VWS V14.01,2013-10-31 01:09:00,
2013-10-30 20:10:00,36.9,33.1,0.00,North,0,1.6,2.9,86,0.00,,---,0.00,VWS V14.01,2013-10-31 01:10:00,
2013-10-30 20:11:00,36.9,33.1,0.00,North,0,1.3,2.9,86,0.00,,---,0.00,VWS V14.01,2013-10-31 01:11:00,
2013-10-30 20:12:00,36.7,32.6,0.00,South,180,0.0,2.9,85,0.00,,---,0.00,VWS V14.01,2013-10-31 01:12:00,
2013-10-30 20:13:00,36.7,32.6,0.00,West,270,3.4,3.4,85,0.00,,---,0.00,VWS V14.01,2013-10-31 01:13:00,
2013-10-30 20:14:00,36.5,32.7,0.00,NW,315,1.3,3.4,86,0.00,,---,0.00,VWS V14.01,2013-10-31 01:14:00,
2013-10-30 20:15:00,36.5,32.7,0.00,NW,315,1.6,3.4,86,0.00,,---,0.00,VWS V14.01,2013-10-31 01:15:00,
2013-10-30 20:16:00,36.5,32.7,0.00,NW,315,2.7,2.7,86,0.00,,---,0.00,VWS V14.01,2013-10-31 01:16:00,
2013-10-30 20:17:00,36.5,32.7,0.00,NW,315,2.9,2.9,86,0.00,,---,0.00,VWS V14.01,2013-10-31 01:17:00,
2013-10-30 20:18:00,36.3,32.6,0.00,North,0,3.6,3.6,86,0.00,,---,0.00,VWS V14.01,2013-10-31 01:18:00,
2013-10-30 20:19:00,36.3,32.8,0.00,North,0,3.6,3.6,87,0.00,,---,0.00,VWS V14.01,2013-10-31 01:19:00,
2013-10-30 20:20:00,36.5,33.3,0.00,North,0,3.1,3.6,88,0.00,,---,0.00,VWS V14.01,2013-10-31 01:20:00,
2013-10-30 20:21:00,36.5,33.3,0.00,North,0,3.6,3.6,88,0.00,,---,0.00,VWS V14.01,2013-10-31 01:21:00,
2013-10-30 20:23:00,36.5,33.6,0.00,North,0,2.5,3.6,89,0.00,,---,0.00,VWS V14.01,2013-10-31 01:23:00,
2013-10-30 20:24:00,36.7,33.8,0.00,NNW,338,4.3,4.3,89,0.00,,---,0.00,VWS V14.01,2013-10-31 01:24:00,
2013-10-30 20:26:00,36.7,34.0,0.00,NW,315,4.3,4.3,90,0.00,,---,0.00,VWS V14.01,2013-10-31 01:26:00,
2013-10-30 20:27:00,36.9,34.5,0.00,NNW,338,4.0,4.3,91,0.00,,---,0.00,VWS V14.01,2013-10-31 01:27:00,
2013-10-30 20:28:00,37.1,35.0,0.00,North,0,3.6,4.3,92,0.00,,---,0.00,VWS V14.01,2013-10-31 01:28:00,
2013-10-30 20:29:00,37.1,35.0,0.00,NNW,338,3.6,4.3,92,0.00,,---,0.00,VWS V14.01,2013-10-31 01:29:00,
2013-10-30 20:30:00,37.2,35.4,0.00,North,0,2.7,4.3,93,0.00,,---,0.00,VWS V14.01,2013-10-31 01:30:00,
2013-10-30 20:31:00,37.2,35.4,0.00,NW,315,3.4,3.6,93,0.00,,---,0.00,VWS V14.01,2013-10-31 01:31:00,
2013-10-30 20:32:00,37.4,35.6,0.00,NNW,338,3.1,3.6,93,0.00,,---,0.00,VWS V14.01,2013-10-31 01:32:00,
2013-10-30 20:33:00,37.4,35.6,0.00,NW,315,2.5,4.0,93,0.00,,---,0.00,VWS V14.01,2013-10-31 01:33:00,
2013-10-30 20:34:00,37.4,35.8,0.00,NW,315,0.9,4.0,94,0.00,,---,0.00,VWS V14.01,2013-10-31 01:34:00,
2013-10-30 20:35:00,37.4,35.8,0.00,NW,315,1.6,4.0,94,0.00,,---,0.00,VWS V14.01,2013-10-31 01:35:00,
2013-10-30 20:36:00,37.2,35.4,0.00,NW,315,0.0,4.0,93,0.00,,---,0.00,VWS V14.01,2013-10-31 01:36:00,
2013-10-30 20:37:00,37.1,35.2,0.00,NW,315,0.0,4.0,93,0.00,,---,0.00,VWS V14.01,2013-10-31 01:37:00,
2013-10-30 20:38:00,37.1,35.2,0.00,NW,315,0.0,4.0,93,0.00,,---,0.00,VWS V14.01,2013-10-31 01:38:00,
2013-10-30 20:40:00,36.9,34.8,0.00,NW,315,1.3,4.0,92,0.00,,---,0.00,VWS V14.01,2013-10-31 01:40:00,
2013-10-30 20:41:00,36.7,34.3,0.00,NW,315,1.3,4.0,91,0.00,,---,0.00,VWS V14.01,2013-10-31 01:41:00,
2013-10-30 20:42:00,36.5,34.2,0.00,NW,315,0.0,4.0,91,0.00,,---,0.00,VWS V14.01,2013-10-31 01:42:00,
2013-10-30 20:43:00,36.5,33.9,0.00,NW,315,2.0,4.0,90,0.00,,---,0.00,VWS V14.01,2013-10-31 01:43:00,
2013-10-30 20:44:00,36.3,33.7,0.00,NW,315,2.5,4.0,90,0.00,,---,0.00,VWS V14.01,2013-10-31 01:44:00,
2013-10-30 20:45:00,36.3,33.7,0.00,NW,315,3.6,4.0,90,0.00,,---,0.00,VWS V14.01,2013-10-31 01:45:00,
2013-10-30 20:46:00,36.3,33.7,0.00,NW,315,3.6,3.6,90,0.00,,---,0.00,VWS V14.01,2013-10-31 01:46:00,
2013-10-30 20:47:00,36.3,33.7,0.00,NW,315,2.9,3.6,90,0.00,,---,0.00,VWS V14.01,2013-10-31 01:47:00,
2013-10-30 20:48:00,36.3,33.7,0.00,NNW,338,2.9,3.6,90,0.00,,---,0.00,VWS V14.01,2013-10-31 01:48:00,
2013-10-30 20:49:00,36.3,33.7,0.00,NNW,338,2.2,3.6,90,0.00,,---,0.00,VWS V14.01,2013-10-31 01:49:00,
2013-10-30 20:50:00,36.3,33.7,0.00,NNW,338,2.0,3.6,90,0.00,,---,0.00,VWS V14.01,2013-10-31 01:50:00,
2013-10-30 20:51:00,36.3,33.7,0.00,North,0,3.6,3.6,90,0.00,,---,0.00,VWS V14.01,2013-10-31 01:51:00,
2013-10-30 20:52:00,36.0,33.3,0.00,North,0,3.6,3.6,90,0.00,,---,0.00,VWS V14.01,2013-10-31 01:52:00,
2013-10-30 20:53:00,36.0,33.3,0.00,North,0,2.7,3.6,90,0.00,,---,0.00,VWS V14.01,2013-10-31 01:53:00,
2013-10-30 20:54:00,35.8,32.9,0.00,North,0,2.9,3.6,89,0.00,,---,0.00,VWS V14.01,2013-10-31 01:54:00,
2013-10-30 20:55:00,35.8,32.9,0.00,North,0,2.5,3.6,89,0.00,,---,0.00,VWS V14.01,2013-10-31 01:55:00,
2013-10-30 20:56:00,35.8,32.9,0.00,NNW,338,1.6,3.6,89,0.00,,---,0.00,VWS V14.01,2013-10-31 01:56:00,
2013-10-30 20:57:00,35.8,32.9,0.00,NNW,338,2.0,3.6,89,0.00,,---,0.00,VWS V14.01,2013-10-31 01:57:00,
2013-10-30 20:58:00,35.6,32.7,0.00,NNW,338,2.2,3.6,89,0.00,,---,0.00,VWS V14.01,2013-10-31 01:58:00,
2013-10-30 20:59:00,35.6,32.7,0.00,NNW,338,1.3,3.6,89,0.00,,---,0.00,VWS V14.01,2013-10-31 01:59:00,
2013-10-30 21:00:00,35.6,32.7,0.00,NW,315,1.3,3.6,89,0.00,,---,0.00,VWS V14.01,2013-10-31 02:00:00,
2013-10-30 21:01:00,35.6,32.7,0.00,NW,315,2.0,2.2,89,0.00,,---,0.00,VWS V14.01,2013-10-31 02:01:00,
2013-10-30 21:02:00,35.8,32.9,0.00,NW,315,2.0,2.2,89,0.00,,---,0.00,VWS V14.01,2013-10-31 02:02:00,
2013-10-30 21:03:00,35.8,32.9,0.00,NW,315,1.6,2.2,89,0.00,,---,0.00,VWS V14.01,2013-10-31 02:03:00,
2013-10-30 21:04:00,35.8,32.9,0.00,NW,315,0.0,2.2,89,0.00,,---,0.00,VWS V14.01,2013-10-31 02:04:00,
2013-10-30 21:05:00,35.8,32.9,0.00,SE,135,2.5,2.5,89,0.00,,---,0.00,VWS V14.01,2013-10-31 02:05:00,
2013-10-30 21:06:00,35.6,32.4,0.00,SE,135,0.0,2.5,88,0.00,,---,0.00,VWS V14.01,2013-10-31 02:06:00,
2013-10-30 21:07:00,35.6,32.4,0.00,SW,225,2.2,2.5,88,0.00,,---,0.00,VWS V14.01,2013-10-31 02:07:00,
2013-10-30 21:08:00,35.1,31.6,0.00,SW,225,1.3,2.5,87,0.00,,---,0.00,VWS V14.01,2013-10-31 02:08:00,
2013-10-30 21:09:00,34.7,30.7,0.00,SW,225,0.0,2.5,85,0.00,,---,0.00,VWS V14.01,2013-10-31 02:09:00,
2013-10-30 21:10:00,34.5,30.2,0.00,SW,225,0.0,2.5,84,0.00,,---,0.00,VWS V14.01,2013-10-31 02:10:00,
2013-10-30 21:11:00,34.5,30.2,0.00,SW,225,0.0,2.5,84,0.00,,---,0.00,VWS V14.01,2013-10-31 02:11:00,
2013-10-30 21:12:00,34.5,30.2,0.00,SW,225,0.0,2.5,84,0.00,,---,0.00,VWS V14.01,2013-10-31 02:12:00,
2013-10-30 21:13:00,34.2,29.9,0.00,SW,225,1.1,2.5,84,0.00,,---,0.00,VWS V14.01,2013-10-31 02:13:00,
2013-10-30 21:14:00,34.4,30.3,0.00,SW,225,1.3,2.5,85,0.00,,---,0.00,VWS V14.01,2013-10-31 02:14:00,
2013-10-30 21:15:00,34.4,30.3,0.00,SW,225,0.0,2.5,85,0.00,,---,0.00,VWS V14.01,2013-10-31 02:15:00,
2013-10-30 21:16:00,34.5,30.8,0.00,SW,225,0.0,0.9,86,0.00,,---,0.00,VWS V14.01,2013-10-31 02:16:00,
2013-10-30 21:17:00,34.5,30.8,0.00,West,270,2.2,2.2,86,0.00,,---,0.00,VWS V14.01,2013-10-31 02:17:00,
2013-10-30 21:18:00,34.5,31.1,0.00,West,270,1.6,2.2,87,0.00,,---,0.00,VWS V14.01,2013-10-31 02:18:00,
2013-10-30 21:19:00,34.5,31.1,0.00,West,270,1.3,2.2,87,0.00,,---,0.00,VWS V14.01,2013-10-31 02:19:00,
2013-10-30 21:20:00,34.5,31.1,0.00,West,270,0.0,2.2,87,0.00,,---,0.00,VWS V14.01,2013-10-31 02:20:00,
2013-10-30 21:21:00,34.5,31.1,0.00,West,270,0.9,2.2,87,0.00,,---,0.00,VWS V14.01,2013-10-31 02:21:00,
2013-10-30 21:22:00,34.4,30.9,0.00,West,270,2.0,2.2,87,0.00,,---,0.00,VWS V14.01,2013-10-31 02:22:00,
2013-10-30 21:23:00,34.4,30.9,0.00,West,270,2.0,2.2,87,0.00,,---,0.00,VWS V14.01,2013-10-31 02:23:00,
2013-10-30 21:24:00,34.4,30.9,0.00,NNW,338,2.5,2.5,87,0.00,,---,0.00,VWS V14.01,2013-10-31 02:24:00,
2013-10-30 21:25:00,34.4,30.9,0.00,NW,315,2.0,2.5,87,0.00,,---,0.00,VWS V14.01,2013-10-31 02:25:00,
2013-10-30 21:26:00,34.4,30.9,0.00,NW,315,2.0,2.5,87,0.00,,---,0.00,VWS V14.01,2013-10-31 02:26:00,
2013-10-30 21:27:00,34.4,30.9,0.00,NW,315,2.2,2.5,87,0.00,,---,0.00,VWS V14.01,2013-10-31 02:27:00,
2013-10-30 21:28:00,34.4,30.9,0.00,NW,315,2.0,2.5,87,0.00,,---,0.00,VWS V14.01,2013-10-31 02:28:00,
2013-10-30 21:29:00,34.5,31.4,0.00,NW,315,2.0,2.5,88,0.00,,---,0.00,VWS V14.01,2013-10-31 02:29:00,
2013-10-30 21:30:00,34.5,31.4,0.00,NW,315,0.9,2.5,88,0.00,,---,0.00,VWS V14.01,2013-10-31 02:30:00,
2013-10-30 21:31:00,34.5,31.4,0.00,NW,315,0.0,0.9,88,0.00,,---,0.00,VWS V14.01,2013-10-31 02:31:00,
2013-10-30 21:32:00,34.5,31.4,0.00,NW,315,1.1,1.6,88,0.00,,---,0.00,VWS V14.01,2013-10-31 02:32:00,
2013-10-30 21:33:00,34.5,31.4,0.00,NW,315,0.0,1.6,88,0.00,,---,0.00,VWS V14.01,2013-10-31 02:33:00,
2013-10-30 21:34:00,34.4,31.2,0.00,NW,315,0.0,1.6,88,0.00,,---,0.00,VWS V14.01,2013-10-31 02:34:00,
2013-10-30 21:35:00,34.4,31.2,0.00,NW,315,0.0,1.6,88,0.00,,---,0.00,VWS V14.01,2013-10-31 02:35:00,
2013-10-30 21:36:00,34.4,31.2,0.00,NW,315,0.0,1.6,88,0.00,,---,0.00,VWS V14.01,2013-10-31 02:36:00,
2013-10-30 21:37:00,34.4,31.2,0.00,NW,315,1.6,1.6,88,0.00,,---,0.00,VWS V14.01,2013-10-31 02:37:00,
2013-10-30 21:38:00,34.4,31.2,0.00,NW,315,1.1,1.6,88,0.00,,---,0.00,VWS V14.01,2013-10-31 02:38:00,
2013-10-30 21:39:00,34.4,31.2,0.00,NW,315,1.3,1.6,88,0.00,,---,0.00,VWS V14.01,2013-10-31 02:39:00,
2013-10-30 21:40:00,34.2,30.7,0.00,NW,315,1.1,2.0,87,0.00,,---,0.00,VWS V14.01,2013-10-31 02:40:00,
2013-10-30 21:41:00,34.2,30.7,0.00,NW,315,0.0,2.0,87,0.00,,---,0.00,VWS V14.01,2013-10-31 02:41:00,
2013-10-30 21:42:00,34.2,30.7,0.00,NW,315,1.1,2.0,87,0.00,,---,0.00,VWS V14.01,2013-10-31 02:42:00,
2013-10-30 21:43:00,34.2,30.7,0.00,NNW,338,2.5,2.5,87,0.00,,---,0.00,VWS V14.01,2013-10-31 02:43:00,
2013-10-30 21:45:00,34.2,30.7,0.00,NNW,338,1.3,2.5,87,0.00,,---,0.00,VWS V14.01,2013-10-31 02:45:00,
2013-10-30 21:46:00,34.2,31.0,0.00,NNW,338,1.6,1.6,88,0.00,,---,0.00,VWS V14.01,2013-10-31 02:46:00,
2013-10-30 21:47:00,34.2,31.0,0.00,NNW,338,0.0,2.0,88,0.00,,---,0.00,VWS V14.01,2013-10-31 02:47:00,
2013-10-30 21:48:00,34.2,31.0,0.00,NNW,338,0.0,2.0,88,0.00,,---,0.00,VWS V14.01,2013-10-31 02:48:00,
2013-10-30 21:49:00,34.2,31.0,0.00,NNW,338,0.0,2.0,88,0.00,,---,0.00,VWS V14.01,2013-10-31 02:49:00,
2013-10-30 21:50:00,34.2,31.0,0.00,NNW,338,1.1,2.7,88,0.00,,---,0.00,VWS V14.01,2013-10-31 02:50:00,
2013-10-30 21:51:00,34.2,31.0,0.00,NNW,338,0.0,2.7,88,0.00,,---,0.00,VWS V14.01,2013-10-31 02:51:00,
2013-10-30 21:52:00,34.2,31.0,0.00,NNW,338,0.0,2.7,88,0.00,,---,0.00,VWS V14.01,2013-10-31 02:52:00,
2013-10-30 21:53:00,34.2,31.0,0.00,NNW,338,0.0,2.7,88,0.00,,---,0.00,VWS V14.01,2013-10-31 02:53:00,
2013-10-30 21:54:00,34.2,31.0,0.00,NNW,338,0.0,2.7,88,0.00,,---,0.00,VWS V14.01,2013-10-31 02:54:00,
2013-10-30 21:55:00,34.2,31.0,0.00,NNW,338,0.0,2.7,88,0.00,,---,0.00,VWS V14.01,2013-10-31 02:55:00,
2013-10-30 21:56:00,34.0,30.5,0.00,NNW,338,0.0,2.7,87,0.00,,---,0.00,VWS V14.01,2013-10-31 02:56:00,
2013-10-30 21:57:00,33.8,30.4,0.00,NNW,338,1.3,2.7,87,0.00,,---,0.00,VWS V14.01,2013-10-31 02:57:00,
2013-10-30 21:58:00,33.8,30.4,0.00,NNW,338,2.0,2.7,87,0.00,,---,0.00,VWS V14.01,2013-10-31 02:58:00,
2013-10-30 21:59:00,33.8,30.4,0.00,NNW,338,0.0,2.7,87,0.00,,---,0.00,VWS V14.01,2013-10-31 02:59:00,
2013-10-30 22:00:00,33.6,30.2,0.00,NNW,338,1.1,2.7,87,0.00,,---,0.00,VWS V14.01,2013-10-31 03:00:00,
2013-10-30 22:01:00,33.6,30.2,0.00,NNW,338,0.0,1.1,87,0.00,,---,0.00,VWS V14.01,2013-10-31 03:01:00,
2013-10-30 22:02:00,33.6,30.2,0.00,NNW,338,0.0,1.1,87,0.00,,---,0.00,VWS V14.01,2013-10-31 03:02:00,
2013-10-30 22:03:00,33.6,30.2,0.00,NNW,338,0.0,1.1,87,0.00,,---,0.00,VWS V14.01,2013-10-31 03:03:00,
2013-10-30 22:04:00,33.5,30.0,0.00,NNW,338,0.0,1.1,87,0.00,,---,0.00,VWS V14.01,2013-10-31 03:04:00,
2013-10-30 22:05:00,33.5,30.0,0.00,NNW,338,1.3,1.3,87,0.00,,---,0.00,VWS V14.01,2013-10-31 03:05:00,
2013-10-30 22:06:00,33.5,30.0,0.00,NNW,338,0.0,1.3,87,0.00,,---,0.00,VWS V14.01,2013-10-31 03:06:00,
2013-10-30 22:07:00,33.6,30.2,0.00,NNW,338,0.0,1.3,87,0.00,,---,0.00,VWS V14.01,2013-10-31 03:07:00,
2013-10-30 22:08:00,33.6,30.2,0.00,NNW,338,0.0,1.3,87,0.00,,---,0.00,VWS V14.01,2013-10-31 03:08:00,
2013-10-30 22:09:00,33.6,30.2,0.00,NNW,338,0.0,1.3,87,0.00,,---,0.00,VWS V14.01,2013-10-31 03:09:00,
2013-10-30 22:10:00,33.5,30.3,0.00,NNW,338,0.9,1.3,88,0.00,,---,0.00,VWS V14.01,2013-10-31 03:10:00,
2013-10-30 22:11:00,33.5,30.3,0.00,NNW,338,2.0,2.0,88,0.00,,---,0.00,VWS V14.01,2013-10-31 03:11:00,
2013-10-30 22:12:00,33.6,30.5,0.00,NNW,338,2.5,2.9,88,0.00,,---,0.00,VWS V14.01,2013-10-31 03:12:00,
2013-10-30 22:13:00,33.8,30.6,0.00,NNW,338,2.0,2.9,88,0.00,,---,0.00,VWS V14.01,2013-10-31 03:13:00,
2013-10-30 22:14:00,33.6,30.5,0.00,NNW,338,2.7,2.9,88,0.00,,---,0.00,VWS V14.01,2013-10-31 03:14:00,
2013-10-30 22:15:00,33.5,30.3,0.00,North,0,3.6,3.6,88,0.00,,---,0.00,VWS V14.01,2013-10-31 03:15:00,
2013-10-30 22:16:00,33.5,30.3,0.00,North,0,2.7,4.0,88,0.00,,---,0.00,VWS V14.01,2013-10-31 03:16:00,
2013-10-30 22:17:00,33.5,30.3,0.00,North,0,2.5,4.0,88,0.00,,---,0.00,VWS V14.01,2013-10-31 03:17:00,
2013-10-30 22:18:00,33.5,30.3,0.00,North,0,3.1,4.0,88,0.00,,---,0.00,VWS V14.01,2013-10-31 03:18:00,
2013-10-30 22:19:00,33.3,30.1,0.00,North,0,2.9,4.0,88,0.00,,---,0.00,VWS V14.01,2013-10-31 03:19:00,
2013-10-30 22:20:00,33.3,30.1,0.00,North,0,3.1,4.0,88,0.00,,---,0.00,VWS V14.01,2013-10-31 03:20:00,
2013-10-30 22:21:00,33.1,29.7,0.00,North,0,2.7,4.0,87,0.00,,---,0.00,VWS V14.01,2013-10-31 03:21:00,
2013-10-30 22:22:00,33.1,29.7,0.00,North,0,2.7,4.0,87,0.00,,---,0.00,VWS V14.01,2013-10-31 03:22:00,
2013-10-30 22:23:00,33.1,29.7,0.00,North,0,2.5,4.0,87,0.00,,---,0.00,VWS V14.01,2013-10-31 03:23:00,
2013-10-30 22:24:00,33.1,29.7,0.00,North,0,3.8,4.0,87,0.00,,---,0.00,VWS V14.01,2013-10-31 03:24:00,
2013-10-30 22:25:00,33.1,29.7,0.00,NW,315,2.0,4.0,87,0.00,,---,0.00,VWS V14.01,2013-10-31 03:25:00,
2013-10-30 22:26:00,33.1,29.7,0.00,NNW,338,1.6,4.0,87,0.00,,---,0.00,VWS V14.01,2013-10-31 03:26:00,
2013-10-30 22:27:00,33.1,29.7,0.00,NW,315,5.4,5.4,87,0.00,,---,0.00,VWS V14.01,2013-10-31 03:27:00,
2013-10-30 22:28:00,33.3,30.1,0.00,NW,315,4.0,5.4,88,0.00,,---,0.00,VWS V14.01,2013-10-31 03:28:00,
2013-10-30 22:29:00,33.3,30.1,0.00,NW,315,5.8,6.0,88,0.00,,---,0.00,VWS V14.01,2013-10-31 03:29:00,
2013-10-30 22:30:00,33.6,30.8,0.00,NW,315,2.5,6.0,89,0.00,,---,0.00,VWS V14.01,2013-10-31 03:30:00,
2013-10-30 22:31:00,33.6,31.0,0.00,West,270,2.0,2.7,90,0.00,,---,0.00,VWS V14.01,2013-10-31 03:31:00,
2013-10-30 22:32:00,33.6,31.0,0.00,NW,315,2.0,2.7,90,0.00,,---,0.00,VWS V14.01,2013-10-31 03:32:00,
2013-10-30 22:33:00,33.6,31.0,0.00,NW,315,3.4,3.4,90,0.00,,---,0.00,VWS V14.01,2013-10-31 03:33:00,
2013-10-30 22:34:00,33.8,31.2,0.00,NW,315,2.7,4.0,90,0.00,,---,0.00,VWS V14.01,2013-10-31 03:34:00,
2013-10-30 22:35:00,33.6,31.0,0.00,NW,315,2.2,4.0,90,0.00,,---,0.00,VWS V14.01,2013-10-31 03:35:00,
2013-10-30 22:36:00,33.6,31.0,0.00,NW,315,3.4,4.0,90,0.00,,---,0.00,VWS V14.01,2013-10-31 03:36:00,
2013-10-30 22:37:00,33.6,31.0,0.00,NW,315,2.7,4.0,90,0.00,,---,0.00,VWS V14.01,2013-10-31 03:37:00,
2013-10-30 22:38:00,33.6,30.8,0.00,NW,315,1.6,4.0,89,0.00,,---,0.00,VWS V14.01,2013-10-31 03:38:00,
2013-10-30 22:39:00,33.6,30.8,0.00,NW,315,4.9,4.9,89,0.00,,---,0.00,VWS V14.01,2013-10-31 03:39:00,
2013-10-30 22:40:00,33.6,30.8,0.00,NW,315,3.1,4.9,89,0.00,,---,0.00,VWS V14.01,2013-10-31 03:40:00,
2013-10-30 22:42:00,33.6,30.8,0.00,NW,315,2.9,4.9,89,0.00,,---,0.00,VWS V14.01,2013-10-31 03:42:00,
2013-10-30 22:43:00,33.8,30.9,0.00,NW,315,0.0,4.9,89,0.00,,---,0.00,VWS V14.01,2013-10-31 03:43:00,
2013-10-30 22:44:00,33.8,30.6,0.00,NW,315,1.3,4.9,88,0.00,,---,0.00,VWS V14.01,2013-10-31 03:44:00,
2013-10-30 22:46:00,33.8,30.6,0.00,NW,315,2.5,4.9,88,0.00,,---,0.00,VWS V14.01,2013-10-31 03:46:00,
2013-10-30 22:47:00,33.8,30.6,0.00,WNW,292,0.0,4.9,88,0.00,,---,0.00,VWS V14.01,2013-10-31 03:47:00,
2013-10-30 22:49:00,33.6,30.5,0.00,WNW,292,2.5,4.9,88,0.00,,---,0.00,VWS V14.01,2013-10-31 03:49:00,
2013-10-30 22:50:00,33.8,30.6,0.00,NW,315,3.8,4.9,88,0.00,,---,0.00,VWS V14.01,2013-10-31 03:50:00,
2013-10-30 22:51:00,33.8,30.6,0.00,NW,315,3.8,4.9,88,0.00,,---,0.00,VWS V14.01,2013-10-31 03:51:00,
2013-10-30 22:52:00,33.8,30.6,0.00,NW,315,4.0,4.9,88,0.00,,---,0.00,VWS V14.01,2013-10-31 03:52:00,
2013-10-30 22:53:00,34.0,30.8,0.00,NNW,338,2.9,4.9,88,0.00,,---,0.00,VWS V14.01,2013-10-31 03:53:00,
2013-10-30 22:54:00,34.0,30.8,0.00,NNW,338,2.2,4.9,88,0.00,,---,0.00,VWS V14.01,2013-10-31 03:54:00,
2013-10-30 22:55:00,34.0,30.8,0.00,NNW,338,2.5,4.9,88,0.00,,---,0.00,VWS V14.01,2013-10-31 03:55:00,
2013-10-30 22:56:00,34.0,30.8,0.00,NNW,338,2.5,4.9,88,0.00,,---,0.00,VWS V14.01,2013-10-31 03:56:00,
2013-10-30 22:57:00,34.0,30.8,0.00,NW,315,2.5,4.9,88,0.00,,---,0.00,VWS V14.01,2013-10-31 03:57:00,
2013-10-30 22:58:00,34.2,31.0,0.00,NW,315,2.5,4.9,88,0.00,,---,0.00,VWS V14.01,2013-10-31 03:58:00,
2013-10-30 22:59:00,34.4,31.2,0.00,NW,315,2.5,4.9,88,0.00,,---,0.00,VWS V14.01,2013-10-31 03:59:00,
2013-10-30 23:00:00,34.4,31.2,0.00,NNW,338,2.5,4.9,88,0.00,,---,0.00,VWS V14.01,2013-10-31 04:00:00,
2013-10-30 23:01:00,34.5,31.4,0.00,NNW,338,1.6,2.5,88,0.00,,---,0.00,VWS V14.01,2013-10-31 04:01:00,
2013-10-30 23:02:00,34.5,31.4,0.00,NNW,338,0.0,2.5,88,0.00,,---,0.00,VWS V14.01,2013-10-31 04:02:00,
2013-10-30 23:03:00,34.5,31.4,0.00,NNW,338,1.3,2.5,88,0.00,,---,0.00,VWS V14.01,2013-10-31 04:03:00,
2013-10-30 23:04:00,34.5,31.4,0.00,NNW,338,0.0,2.5,88,0.00,,---,0.00,VWS V14.01,2013-10-31 04:04:00,
2013-10-30 23:05:00,34.4,31.2,0.00,NNW,338,1.3,2.5,88,0.00,,---,0.00,VWS V14.01,2013-10-31 04:05:00,
2013-10-30 23:06:00,34.4,30.9,0.00,NNW,338,1.3,2.5,87,0.00,,---,0.00,VWS V14.01,2013-10-31 04:06:00,
2013-10-30 23:07:00,34.4,30.9,0.00,NNW,338,1.6,2.5,87,0.00,,---,0.00,VWS V14.01,2013-10-31 04:07:00,
2013-10-30 23:08:00,34.4,30.9,0.00,NNW,338,1.6,2.7,87,0.00,,---,0.00,VWS V14.01,2013-10-31 04:08:00,
2013-10-30 23:09:00,34.4,30.9,0.00,NNW,338,2.0,2.7,87,0.00,,---,0.00,VWS V14.01,2013-10-31 04:09:00,
2013-10-30 23:10:00,34.5,31.1,0.00,NNW,338,1.1,2.7,87,0.00,,---,0.00,VWS V14.01,2013-10-31 04:10:00,
2013-10-30 23:11:00,34.5,31.1,0.00,SW,225,2.2,2.7,87,0.00,,---,0.00,VWS V14.01,2013-10-31 04:11:00,
2013-10-30 23:12:00,34.5,31.1,0.00,SSW,202,1.6,2.7,87,0.00,,---,0.00,VWS V14.01,2013-10-31 04:12:00,
2013-10-30 23:13:00,34.4,30.6,0.00,SSW,202,0.9,2.7,86,0.00,,---,0.00,VWS V14.01,2013-10-31 04:13:00,
2013-10-30 23:14:00,34.4,30.6,0.00,SSW,202,0.0,2.7,86,0.00,,---,0.00,VWS V14.01,2013-10-31 04:14:00,
2013-10-30 23:15:00,34.0,30.0,0.00,SSW,202,1.6,2.7,85,0.00,,---,0.00,VWS V14.01,2013-10-31 04:15:00,
2013-10-30 23:16:00,34.0,30.0,0.00,SE,135,0.0,1.6,85,0.00,,---,0.00,VWS V14.01,2013-10-31 04:16:00,
2013-10-30 23:17:00,33.8,29.8,0.00,SE,135,0.0,1.6,85,0.00,,---,0.00,VWS V14.01,2013-10-31 04:17:00,
2013-10-30 23:18:00,33.6,29.6,0.00,SE,135,0.0,1.6,85,0.00,,---,0.00,VWS V14.01,2013-10-31 04:18:00,
2013-10-30 23:19:00,33.6,29.6,0.00,NE,45,2.0,2.0,85,0.00,,---,0.00,VWS V14.01,2013-10-31 04:19:00,
2013-10-30 23:20:00,33.6,29.6,0.00,NE,45,1.1,2.0,85,0.00,,---,0.00,VWS V14.01,2013-10-31 04:20:00,
2013-10-30 23:21:00,33.6,29.6,0.00,NE,45,0.0,2.0,85,0.00,,---,0.00,VWS V14.01,2013-10-31 04:21:00,
2013-10-30 23:22:00,33.6,29.6,0.00,SW,225,1.3,2.0,85,0.00,,---,0.00,VWS V14.01,2013-10-31 04:22:00,
2013-10-30 23:23:00,33.8,29.8,0.00,WSW,248,0.9,2.0,85,0.00,,---,0.00,VWS V14.01,2013-10-31 04:23:00,
2013-10-30 23:24:00,33.8,29.8,0.00,WSW,248,0.0,2.0,85,0.00,,---,0.00,VWS V14.01,2013-10-31 04:24:00,
2013-10-30 23:25:00,34.0,30.0,0.00,WSW,248,0.0,2.0,85,0.00,,---,0.00,VWS V14.01,2013-10-31 04:25:00,
2013-10-30 23:26:00,34.2,30.4,0.00,WSW,248,0.0,2.0,86,0.00,,---,0.00,VWS V14.01,2013-10-31 04:26:00,
2013-10-30 23:27:00,34.2,30.4,0.00,WSW,248,0.0,2.0,86,0.00,,---,0.00,VWS V14.01,2013-10-31 04:27:00,
2013-10-30 23:28:00,34.2,30.4,0.00,WSW,248,0.0,2.0,86,0.00,,---,0.00,VWS V14.01,2013-10-31 04:28:00,
2013-10-30 23:29:00,34.2,30.4,0.00,WSW,248,0.0,2.0,86,0.00,,---,0.00,VWS V14.01,2013-10-31 04:29:00,
2013-10-30 23:30:00,34.4,30.6,0.00,WSW,248,0.0,2.0,86,0.00,,---,0.00,VWS V14.01,2013-10-31 04:30:00,
2013-10-30 23:31:00,34.4,30.6,0.00,WSW,248,0.0,0.0,86,0.00,,---,0.00,VWS V14.01,2013-10-31 04:31:00,
2013-10-30 23:32:00,34.4,30.6,0.00,WSW,248,0.0,0.0,86,0.00,,---,0.00,VWS V14.01,2013-10-31 04:32:00,
2013-10-30 23:33:00,34.5,30.8,0.00,WSW,248,0.0,0.0,86,0.00,,---,0.00,VWS V14.01,2013-10-31 04:33:00,
2013-10-30 23:34:00,34.5,30.8,0.00,NW,315,1.3,1.3,86,0.00,,---,0.00,VWS V14.01,2013-10-31 04:34:00,
2013-10-30 23:35:00,34.5,30.8,0.00,North,0,1.3,2.0,86,0.00,,---,0.00,VWS V14.01,2013-10-31 04:35:00,
2013-10-30 23:36:00,34.5,30.8,0.00,North,0,2.5,2.5,86,0.00,,---,0.00,VWS V14.01,2013-10-31 04:36:00,
2013-10-30 23:37:00,34.5,30.8,0.00,North,0,2.5,2.5,86,0.00,,---,0.00,VWS V14.01,2013-10-31 04:37:00,
2013-10-30 23:38:00,34.5,30.8,0.00,North,0,2.2,2.7,86,0.00,,---,0.00,VWS V14.01,2013-10-31 04:38:00,
2013-10-30 23:39:00,34.5,30.8,0.00,West,270,2.9,2.9,86,0.00,,---,0.00,VWS V14.01,2013-10-31 04:39:00,
2013-10-30 23:40:00,34.5,30.8,0.00,West,270,2.9,2.9,86,0.00,,---,0.00,VWS V14.01,2013-10-31 04:40:00,
2013-10-30 23:41:00,34.7,31.2,0.00,West,270,3.6,5.4,87,0.00,,---,0.00,VWS V14.01,2013-10-31 04:41:00,
2013-10-30 23:42:00,34.7,31.2,0.00,NW,315,2.9,5.4,87,0.00,,---,0.00,VWS V14.01,2013-10-31 04:42:00,
2013-10-30 23:43:00,34.7,31.2,0.00,NW,315,2.7,5.4,87,0.00,,---,0.00,VWS V14.01,2013-10-31 04:43:00,
2013-10-30 23:44:00,34.9,31.7,0.00,West,270,2.0,5.4,88,0.00,,---,0.00,VWS V14.01,2013-10-31 04:44:00,
2013-10-30 23:45:00,34.9,31.7,0.00,NW,315,2.5,5.4,88,0.00,,---,0.00,VWS V14.01,2013-10-31 04:45:00,
2013-10-30 23:46:00,34.9,31.7,0.00,West,270,4.9,4.9,88,0.00,,---,0.00,VWS V14.01,2013-10-31 04:46:00,
2013-10-30 23:47:00,34.9,31.7,0.00,West,270,3.6,4.9,88,0.00,,---,0.00,VWS V14.01,2013-10-31 04:47:00,
2013-10-30 23:48:00,34.9,31.7,0.00,West,270,2.7,4.9,88,0.00,,---,0.00,VWS V14.01,2013-10-31 04:48:00,
2013-10-30 23:49:00,35.1,31.6,0.00,NW,315,1.1,4.9,87,0.00,,---,0.00,VWS V14.01,2013-10-31 04:49:00,
2013-10-30 23:50:00,35.1,31.6,0.00,NNW,338,2.9,4.9,87,0.00,,---,0.00,VWS V14.01,2013-10-31 04:50:00,
2013-10-30 23:51:00,35.1,31.6,0.00,NW,315,3.1,4.9,87,0.00,,---,0.00,VWS V14.01,2013-10-31 04:51:00,
2013-10-30 23:52:00,35.1,31.6,0.00,NNW,338,2.2,4.9,87,0.00,,---,0.00,VWS V14.01,2013-10-31 04:52:00,
2013-10-30 23:53:00,35.1,31.3,0.00,NW,315,1.6,4.9,86,0.00,,---,0.00,VWS V14.01,2013-10-31 04:53:00,
2013-10-30 23:54:00,34.9,31.1,0.00,North,0,2.7,4.9,86,0.00,,---,0.00,VWS V14.01,2013-10-31 04:54:00,
2013-10-30 23:55:00,34.9,31.1,0.00,NW,315,1.6,4.9,86,0.00,,---,0.00,VWS V14.01,2013-10-31 04:55:00,
2013-10-30 23:56:00,34.9,31.1,0.00,NW,315,2.5,4.9,86,0.00,,---,0.00,VWS V14.01,2013-10-31 04:56:00,
2013-10-30 23:57:00,34.9,31.1,0.00,North,0,2.7,4.9,86,0.00,,---,0.00,VWS V14.01,2013-10-31 04:57:00,
2013-10-30 23:58:00,34.9,31.1,0.00,NW,315,2.7,4.9,86,0.00,,---,0.00,VWS V14.01,2013-10-31 04:58:00,
2013-10-30 23:59:00,34.9,31.1,0.00,NW,315,3.1,4.9,86,0.00,,---,0.00,VWS V14.01,2013-10-31 04:59:00,